<?xml version="1.0" encoding="UTF-8"?>
<gpx version="1.0" creator="GPSBabel - https://www.gpsbabel.org" xmlns="http://www.topografix.com/GPX/1/0">
  <time>2022-04-27T17:01:35.933Z</time>
  <bounds minlat="35.752735662" minlon="-106.270083508" maxlat="35.778643907" maxlon="-106.254448434"/>
  <wpt lat="35.778643907" lon="-106.270083508">
    <ele>0.000</ele>
    <name>Bandelier Visitors Center</name>
    <cmt>Bandelier Visitors Center</cmt>
    <desc>Bandelier Visitors Center</desc>
  </wpt>
  <wpt lat="35.752735662" lon="-106.254448434">
    <ele>0.000</ele>
    <name>Rio Grand River</name>
    <cmt>Rio Grand River</cmt>
    <desc>Rio Grand River</desc>
  </wpt>
  <trk>
    <name>Bandelier-Falls Trail Hike.Pat.2022-04-25</name>
    <trkseg>
      <trkpt lat="35.777343220" lon="-106.269916820">
        <ele>1845.300</ele>
        <time>2022-04-25T20:21:32Z</time>
        <name>WPT</name>
      </trkpt>
      <trkpt lat="35.777375510" lon="-106.269937220">
        <ele>1847.100</ele>
        <time>2022-04-25T20:21:33Z</time>
        <name>WPT.1</name>
      </trkpt>
      <trkpt lat="35.777374260" lon="-106.269890330">
        <ele>1826.700</ele>
        <time>2022-04-25T20:21:37Z</time>
        <name>WPT.2</name>
      </trkpt>
      <trkpt lat="35.777343940" lon="-106.269859400">
        <ele>1821.400</ele>
        <time>2022-04-25T20:21:48Z</time>
        <name>WPT.3</name>
      </trkpt>
      <trkpt lat="35.777322360" lon="-106.269823010">
        <ele>1819.500</ele>
        <time>2022-04-25T20:21:51Z</time>
        <name>WPT.4</name>
      </trkpt>
      <trkpt lat="35.777288910" lon="-106.269781120">
        <ele>1818.000</ele>
        <time>2022-04-25T20:21:55Z</time>
        <name>WPT.5</name>
      </trkpt>
      <trkpt lat="35.777253040" lon="-106.269740320">
        <ele>1817.200</ele>
        <time>2022-04-25T20:21:59Z</time>
        <name>WPT.6</name>
      </trkpt>
      <trkpt lat="35.777228790" lon="-106.269704520">
        <ele>1819.600</ele>
        <time>2022-04-25T20:22:04Z</time>
        <name>WPT.7</name>
      </trkpt>
      <trkpt lat="35.777201450" lon="-106.269669530">
        <ele>1817.200</ele>
        <time>2022-04-25T20:23:21Z</time>
        <name>WPT.8</name>
      </trkpt>
      <trkpt lat="35.777166940" lon="-106.269647970">
        <ele>1815.100</ele>
        <time>2022-04-25T20:23:40Z</time>
        <name>WPT.9</name>
      </trkpt>
      <trkpt lat="35.777129850" lon="-106.269642440">
        <ele>1814.700</ele>
        <time>2022-04-25T20:23:44Z</time>
        <name>WPT.10</name>
      </trkpt>
      <trkpt lat="35.777095160" lon="-106.269618020">
        <ele>1814.400</ele>
        <time>2022-04-25T20:23:48Z</time>
        <name>WPT.11</name>
      </trkpt>
      <trkpt lat="35.777059190" lon="-106.269592780">
        <ele>1812.600</ele>
        <time>2022-04-25T20:23:52Z</time>
        <name>WPT.12</name>
      </trkpt>
      <trkpt lat="35.777016460" lon="-106.269586390">
        <ele>1813.600</ele>
        <time>2022-04-25T20:23:57Z</time>
        <name>WPT.13</name>
      </trkpt>
      <trkpt lat="35.776982690" lon="-106.269564930">
        <ele>1814.900</ele>
        <time>2022-04-25T20:24:00Z</time>
        <name>WPT.14</name>
      </trkpt>
      <trkpt lat="35.776945910" lon="-106.269535500">
        <ele>1816.300</ele>
        <time>2022-04-25T20:24:04Z</time>
        <name>WPT.15</name>
      </trkpt>
      <trkpt lat="35.776909150" lon="-106.269508860">
        <ele>1816.200</ele>
        <time>2022-04-25T20:24:09Z</time>
        <name>WPT.16</name>
      </trkpt>
      <trkpt lat="35.776875760" lon="-106.269483940">
        <ele>1814.900</ele>
        <time>2022-04-25T20:24:13Z</time>
        <name>WPT.17</name>
      </trkpt>
      <trkpt lat="35.776842980" lon="-106.269462950">
        <ele>1814.800</ele>
        <time>2022-04-25T20:24:17Z</time>
        <name>WPT.18</name>
      </trkpt>
      <trkpt lat="35.776810770" lon="-106.269440650">
        <ele>1815.300</ele>
        <time>2022-04-25T20:24:21Z</time>
        <name>WPT.19</name>
      </trkpt>
      <trkpt lat="35.776774570" lon="-106.269426880">
        <ele>1812.900</ele>
        <time>2022-04-25T20:24:26Z</time>
        <name>WPT.20</name>
      </trkpt>
      <trkpt lat="35.776733310" lon="-106.269424960">
        <ele>1814.100</ele>
        <time>2022-04-25T20:24:30Z</time>
        <name>WPT.21</name>
      </trkpt>
      <trkpt lat="35.776698320" lon="-106.269411770">
        <ele>1813.100</ele>
        <time>2022-04-25T20:24:34Z</time>
        <name>WPT.22</name>
      </trkpt>
      <trkpt lat="35.776655620" lon="-106.269408880">
        <ele>1815.600</ele>
        <time>2022-04-25T20:24:39Z</time>
        <name>WPT.23</name>
      </trkpt>
      <trkpt lat="35.776617380" lon="-106.269391690">
        <ele>1816.200</ele>
        <time>2022-04-25T20:24:44Z</time>
        <name>WPT.24</name>
      </trkpt>
      <trkpt lat="35.776586260" lon="-106.269366100">
        <ele>1817.200</ele>
        <time>2022-04-25T20:24:49Z</time>
        <name>WPT.25</name>
      </trkpt>
      <trkpt lat="35.776547930" lon="-106.269368670">
        <ele>1818.100</ele>
        <time>2022-04-25T20:24:52Z</time>
        <name>WPT.26</name>
      </trkpt>
      <trkpt lat="35.776509260" lon="-106.269380700">
        <ele>1820.500</ele>
        <time>2022-04-25T20:24:56Z</time>
        <name>WPT.27</name>
      </trkpt>
      <trkpt lat="35.776472480" lon="-106.269376820">
        <ele>1820.100</ele>
        <time>2022-04-25T20:24:59Z</time>
        <name>WPT.28</name>
      </trkpt>
      <trkpt lat="35.776433870" lon="-106.269364700">
        <ele>1820.400</ele>
        <time>2022-04-25T20:25:03Z</time>
        <name>WPT.29</name>
      </trkpt>
      <trkpt lat="35.776394490" lon="-106.269362410">
        <ele>1820.600</ele>
        <time>2022-04-25T20:25:08Z</time>
        <name>WPT.30</name>
      </trkpt>
      <trkpt lat="35.776360180" lon="-106.269347510">
        <ele>1819.700</ele>
        <time>2022-04-25T20:25:12Z</time>
        <name>WPT.31</name>
      </trkpt>
      <trkpt lat="35.776323750" lon="-106.269335630">
        <ele>1821.400</ele>
        <time>2022-04-25T20:25:17Z</time>
        <name>WPT.32</name>
      </trkpt>
      <trkpt lat="35.776283410" lon="-106.269307880">
        <ele>1821.600</ele>
        <time>2022-04-25T20:25:21Z</time>
        <name>WPT.33</name>
      </trkpt>
      <trkpt lat="35.776254930" lon="-106.269270790">
        <ele>1821.600</ele>
        <time>2022-04-25T20:25:25Z</time>
        <name>WPT.34</name>
      </trkpt>
      <trkpt lat="35.776225660" lon="-106.269237260">
        <ele>1823.300</ele>
        <time>2022-04-25T20:25:29Z</time>
        <name>WPT.35</name>
      </trkpt>
      <trkpt lat="35.776190530" lon="-106.269215330">
        <ele>1823.600</ele>
        <time>2022-04-25T20:25:35Z</time>
        <name>WPT.36</name>
      </trkpt>
      <trkpt lat="35.776145250" lon="-106.269217320">
        <ele>1822.600</ele>
        <time>2022-04-25T20:25:41Z</time>
        <name>WPT.37</name>
      </trkpt>
      <trkpt lat="35.776109060" lon="-106.269218370">
        <ele>1823.500</ele>
        <time>2022-04-25T20:25:44Z</time>
        <name>WPT.38</name>
      </trkpt>
      <trkpt lat="35.776067070" lon="-106.269211080">
        <ele>1823.400</ele>
        <time>2022-04-25T20:25:49Z</time>
        <name>WPT.39</name>
      </trkpt>
      <trkpt lat="35.776029990" lon="-106.269207420">
        <ele>1824.000</ele>
        <time>2022-04-25T20:25:53Z</time>
        <name>WPT.40</name>
      </trkpt>
      <trkpt lat="35.775990570" lon="-106.269201640">
        <ele>1827.400</ele>
        <time>2022-04-25T20:25:57Z</time>
        <name>WPT.41</name>
      </trkpt>
      <trkpt lat="35.775957760" lon="-106.269233870">
        <ele>1827.100</ele>
        <time>2022-04-25T20:26:02Z</time>
        <name>WPT.42</name>
      </trkpt>
      <trkpt lat="35.775917330" lon="-106.269223300">
        <ele>1827.800</ele>
        <time>2022-04-25T20:27:55Z</time>
        <name>WPT.43</name>
      </trkpt>
      <trkpt lat="35.775880350" lon="-106.269218610">
        <ele>1827.000</ele>
        <time>2022-04-25T20:27:59Z</time>
        <name>WPT.44</name>
      </trkpt>
      <trkpt lat="35.775845820" lon="-106.269201870">
        <ele>1826.300</ele>
        <time>2022-04-25T20:28:03Z</time>
        <name>WPT.45</name>
      </trkpt>
      <trkpt lat="35.775813740" lon="-106.269169990">
        <ele>1827.300</ele>
        <time>2022-04-25T20:28:07Z</time>
        <name>WPT.46</name>
      </trkpt>
      <trkpt lat="35.775778500" lon="-106.269151660">
        <ele>1826.200</ele>
        <time>2022-04-25T20:28:11Z</time>
        <name>WPT.47</name>
      </trkpt>
      <trkpt lat="35.775743320" lon="-106.269125820">
        <ele>1826.200</ele>
        <time>2022-04-25T20:28:15Z</time>
        <name>WPT.48</name>
      </trkpt>
      <trkpt lat="35.775706780" lon="-106.269097860">
        <ele>1825.900</ele>
        <time>2022-04-25T20:28:20Z</time>
        <name>WPT.49</name>
      </trkpt>
      <trkpt lat="35.775671960" lon="-106.269073170">
        <ele>1825.700</ele>
        <time>2022-04-25T20:28:24Z</time>
        <name>WPT.50</name>
      </trkpt>
      <trkpt lat="35.775631850" lon="-106.269047790">
        <ele>1825.200</ele>
        <time>2022-04-25T20:28:28Z</time>
        <name>WPT.51</name>
      </trkpt>
      <trkpt lat="35.775584820" lon="-106.269042230">
        <ele>1826.200</ele>
        <time>2022-04-25T20:28:32Z</time>
        <name>WPT.52</name>
      </trkpt>
      <trkpt lat="35.775543040" lon="-106.269038990">
        <ele>1825.300</ele>
        <time>2022-04-25T20:28:36Z</time>
        <name>WPT.53</name>
      </trkpt>
      <trkpt lat="35.775502130" lon="-106.269038560">
        <ele>1824.200</ele>
        <time>2022-04-25T20:28:40Z</time>
        <name>WPT.54</name>
      </trkpt>
      <trkpt lat="35.775463670" lon="-106.269034560">
        <ele>1825.600</ele>
        <time>2022-04-25T20:28:45Z</time>
        <name>WPT.55</name>
      </trkpt>
      <trkpt lat="35.775424830" lon="-106.269020960">
        <ele>1825.200</ele>
        <time>2022-04-25T20:28:49Z</time>
        <name>WPT.56</name>
      </trkpt>
      <trkpt lat="35.775379190" lon="-106.269020410">
        <ele>1825.000</ele>
        <time>2022-04-25T20:28:53Z</time>
        <name>WPT.57</name>
      </trkpt>
      <trkpt lat="35.775339900" lon="-106.269019000">
        <ele>1825.800</ele>
        <time>2022-04-25T20:28:57Z</time>
        <name>WPT.58</name>
      </trkpt>
      <trkpt lat="35.775300250" lon="-106.269011690">
        <ele>1826.300</ele>
        <time>2022-04-25T20:29:01Z</time>
        <name>WPT.59</name>
      </trkpt>
      <trkpt lat="35.775265510" lon="-106.268980890">
        <ele>1825.200</ele>
        <time>2022-04-25T20:29:07Z</time>
        <name>WPT.60</name>
      </trkpt>
      <trkpt lat="35.775242750" lon="-106.268943760">
        <ele>1824.000</ele>
        <time>2022-04-25T20:29:12Z</time>
        <name>WPT.61</name>
      </trkpt>
      <trkpt lat="35.775217360" lon="-106.268901710">
        <ele>1824.200</ele>
        <time>2022-04-25T20:29:18Z</time>
        <name>WPT.62</name>
      </trkpt>
      <trkpt lat="35.775198610" lon="-106.268858850">
        <ele>1822.400</ele>
        <time>2022-04-25T20:29:23Z</time>
        <name>WPT.63</name>
      </trkpt>
      <trkpt lat="35.775184860" lon="-106.268816290">
        <ele>1821.100</ele>
        <time>2022-04-25T20:29:27Z</time>
        <name>WPT.64</name>
      </trkpt>
      <trkpt lat="35.775158650" lon="-106.268776290">
        <ele>1819.800</ele>
        <time>2022-04-25T20:29:32Z</time>
        <name>WPT.65</name>
      </trkpt>
      <trkpt lat="35.775128330" lon="-106.268744850">
        <ele>1819.400</ele>
        <time>2022-04-25T20:29:36Z</time>
        <name>WPT.66</name>
      </trkpt>
      <trkpt lat="35.775096350" lon="-106.268711750">
        <ele>1818.100</ele>
        <time>2022-04-25T20:29:40Z</time>
        <name>WPT.67</name>
      </trkpt>
      <trkpt lat="35.775059720" lon="-106.268688930">
        <ele>1818.900</ele>
        <time>2022-04-25T20:29:44Z</time>
        <name>WPT.68</name>
      </trkpt>
      <trkpt lat="35.775022150" lon="-106.268675020">
        <ele>1817.900</ele>
        <time>2022-04-25T20:30:54Z</time>
        <name>WPT.69</name>
      </trkpt>
      <trkpt lat="35.774995380" lon="-106.268633230">
        <ele>1818.800</ele>
        <time>2022-04-25T20:30:59Z</time>
        <name>WPT.70</name>
      </trkpt>
      <trkpt lat="35.774968210" lon="-106.268594640">
        <ele>1818.600</ele>
        <time>2022-04-25T20:31:04Z</time>
        <name>WPT.71</name>
      </trkpt>
      <trkpt lat="35.774944430" lon="-106.268553670">
        <ele>1818.700</ele>
        <time>2022-04-25T20:31:08Z</time>
        <name>WPT.72</name>
      </trkpt>
      <trkpt lat="35.774912930" lon="-106.268531390">
        <ele>1817.200</ele>
        <time>2022-04-25T20:31:12Z</time>
        <name>WPT.73</name>
      </trkpt>
      <trkpt lat="35.774876780" lon="-106.268515930">
        <ele>1815.700</ele>
        <time>2022-04-25T20:31:17Z</time>
        <name>WPT.74</name>
      </trkpt>
      <trkpt lat="35.774842460" lon="-106.268494790">
        <ele>1814.800</ele>
        <time>2022-04-25T20:31:21Z</time>
        <name>WPT.75</name>
      </trkpt>
      <trkpt lat="35.774803500" lon="-106.268471100">
        <ele>1812.900</ele>
        <time>2022-04-25T20:31:26Z</time>
        <name>WPT.76</name>
      </trkpt>
      <trkpt lat="35.774768300" lon="-106.268441760">
        <ele>1811.900</ele>
        <time>2022-04-25T20:31:30Z</time>
        <name>WPT.77</name>
      </trkpt>
      <trkpt lat="35.774733180" lon="-106.268419970">
        <ele>1814.300</ele>
        <time>2022-04-25T20:31:34Z</time>
        <name>WPT.78</name>
      </trkpt>
      <trkpt lat="35.774700750" lon="-106.268400450">
        <ele>1814.700</ele>
        <time>2022-04-25T20:31:37Z</time>
        <name>WPT.79</name>
      </trkpt>
      <trkpt lat="35.774668880" lon="-106.268379670">
        <ele>1815.000</ele>
        <time>2022-04-25T20:31:40Z</time>
        <name>WPT.80</name>
      </trkpt>
      <trkpt lat="35.774633220" lon="-106.268359600">
        <ele>1812.800</ele>
        <time>2022-04-25T20:31:44Z</time>
        <name>WPT.81</name>
      </trkpt>
      <trkpt lat="35.774596290" lon="-106.268337750">
        <ele>1812.300</ele>
        <time>2022-04-25T20:31:55Z</time>
        <name>WPT.82</name>
      </trkpt>
      <trkpt lat="35.774561690" lon="-106.268318780">
        <ele>1811.000</ele>
        <time>2022-04-25T20:32:00Z</time>
        <name>WPT.83</name>
      </trkpt>
      <trkpt lat="35.774525900" lon="-106.268297300">
        <ele>1810.200</ele>
        <time>2022-04-25T20:32:05Z</time>
        <name>WPT.84</name>
      </trkpt>
      <trkpt lat="35.774491080" lon="-106.268265070">
        <ele>1812.900</ele>
        <time>2022-04-25T20:32:11Z</time>
        <name>WPT.85</name>
      </trkpt>
      <trkpt lat="35.774453050" lon="-106.268249020">
        <ele>1812.700</ele>
        <time>2022-04-25T20:32:15Z</time>
        <name>WPT.86</name>
      </trkpt>
      <trkpt lat="35.774414990" lon="-106.268245290">
        <ele>1812.000</ele>
        <time>2022-04-25T20:32:19Z</time>
        <name>WPT.87</name>
      </trkpt>
      <trkpt lat="35.774369810" lon="-106.268232870">
        <ele>1812.700</ele>
        <time>2022-04-25T20:32:24Z</time>
        <name>WPT.88</name>
      </trkpt>
      <trkpt lat="35.774326950" lon="-106.268219760">
        <ele>1812.900</ele>
        <time>2022-04-25T20:32:29Z</time>
        <name>WPT.89</name>
      </trkpt>
      <trkpt lat="35.774289440" lon="-106.268218260">
        <ele>1813.500</ele>
        <time>2022-04-25T20:32:34Z</time>
        <name>WPT.90</name>
      </trkpt>
      <trkpt lat="35.774252210" lon="-106.268196120">
        <ele>1814.100</ele>
        <time>2022-04-25T20:32:38Z</time>
        <name>WPT.91</name>
      </trkpt>
      <trkpt lat="35.774227260" lon="-106.268150890">
        <ele>1814.200</ele>
        <time>2022-04-25T20:32:43Z</time>
        <name>WPT.92</name>
      </trkpt>
      <trkpt lat="35.774209920" lon="-106.268106940">
        <ele>1813.500</ele>
        <time>2022-04-25T20:32:49Z</time>
        <name>WPT.93</name>
      </trkpt>
      <trkpt lat="35.774191400" lon="-106.268055150">
        <ele>1813.000</ele>
        <time>2022-04-25T20:32:54Z</time>
        <name>WPT.94</name>
      </trkpt>
      <trkpt lat="35.774163350" lon="-106.268024110">
        <ele>1813.400</ele>
        <time>2022-04-25T20:33:15Z</time>
        <name>WPT.95</name>
      </trkpt>
      <trkpt lat="35.774130550" lon="-106.267990220">
        <ele>1813.300</ele>
        <time>2022-04-25T20:33:19Z</time>
        <name>WPT.96</name>
      </trkpt>
      <trkpt lat="35.774108820" lon="-106.267953870">
        <ele>1812.200</ele>
        <time>2022-04-25T20:33:22Z</time>
        <name>WPT.97</name>
      </trkpt>
      <trkpt lat="35.774081050" lon="-106.267917180">
        <ele>1812.000</ele>
        <time>2022-04-25T20:33:25Z</time>
        <name>WPT.98</name>
      </trkpt>
      <trkpt lat="35.774054250" lon="-106.267883410">
        <ele>1812.100</ele>
        <time>2022-04-25T20:33:29Z</time>
        <name>WPT.99</name>
      </trkpt>
      <trkpt lat="35.774020620" lon="-106.267864610">
        <ele>1812.400</ele>
        <time>2022-04-25T20:33:32Z</time>
        <name>WPT.100</name>
      </trkpt>
      <trkpt lat="35.773978380" lon="-106.267858180">
        <ele>1812.200</ele>
        <time>2022-04-25T20:33:37Z</time>
        <name>WPT.101</name>
      </trkpt>
      <trkpt lat="35.773947950" lon="-106.267831200">
        <ele>1812.000</ele>
        <time>2022-04-25T20:33:41Z</time>
        <name>WPT.102</name>
      </trkpt>
      <trkpt lat="35.773912700" lon="-106.267793110">
        <ele>1809.900</ele>
        <time>2022-04-25T20:33:46Z</time>
        <name>WPT.103</name>
      </trkpt>
      <trkpt lat="35.773879760" lon="-106.267755330">
        <ele>1812.600</ele>
        <time>2022-04-25T20:33:50Z</time>
        <name>WPT.104</name>
      </trkpt>
      <trkpt lat="35.773848930" lon="-106.267713000">
        <ele>1814.700</ele>
        <time>2022-04-25T20:33:54Z</time>
        <name>WPT.105</name>
      </trkpt>
      <trkpt lat="35.773816420" lon="-106.267673920">
        <ele>1815.400</ele>
        <time>2022-04-25T20:33:58Z</time>
        <name>WPT.106</name>
      </trkpt>
      <trkpt lat="35.773780420" lon="-106.267644380">
        <ele>1815.800</ele>
        <time>2022-04-25T20:34:02Z</time>
        <name>WPT.107</name>
      </trkpt>
      <trkpt lat="35.773747040" lon="-106.267616820">
        <ele>1815.000</ele>
        <time>2022-04-25T20:34:06Z</time>
        <name>WPT.108</name>
      </trkpt>
      <trkpt lat="35.773717700" lon="-106.267584510">
        <ele>1816.100</ele>
        <time>2022-04-25T20:34:10Z</time>
        <name>WPT.109</name>
      </trkpt>
      <trkpt lat="35.773683240" lon="-106.267567010">
        <ele>1815.000</ele>
        <time>2022-04-25T20:34:14Z</time>
        <name>WPT.110</name>
      </trkpt>
      <trkpt lat="35.773644450" lon="-106.267552110">
        <ele>1813.100</ele>
        <time>2022-04-25T20:34:18Z</time>
        <name>WPT.111</name>
      </trkpt>
      <trkpt lat="35.773607630" lon="-106.267538730">
        <ele>1814.100</ele>
        <time>2022-04-25T20:34:21Z</time>
        <name>WPT.112</name>
      </trkpt>
      <trkpt lat="35.773571170" lon="-106.267535300">
        <ele>1813.300</ele>
        <time>2022-04-25T20:34:24Z</time>
        <name>WPT.113</name>
      </trkpt>
      <trkpt lat="35.773532650" lon="-106.267522530">
        <ele>1813.400</ele>
        <time>2022-04-25T20:34:28Z</time>
        <name>WPT.114</name>
      </trkpt>
      <trkpt lat="35.773498420" lon="-106.267495120">
        <ele>1813.800</ele>
        <time>2022-04-25T20:34:32Z</time>
        <name>WPT.115</name>
      </trkpt>
      <trkpt lat="35.773466340" lon="-106.267466720">
        <ele>1815.100</ele>
        <time>2022-04-25T20:34:36Z</time>
        <name>WPT.116</name>
      </trkpt>
      <trkpt lat="35.773436900" lon="-106.267427090">
        <ele>1816.000</ele>
        <time>2022-04-25T20:34:40Z</time>
        <name>WPT.117</name>
      </trkpt>
      <trkpt lat="35.773409100" lon="-106.267395300">
        <ele>1816.600</ele>
        <time>2022-04-25T20:34:44Z</time>
        <name>WPT.118</name>
      </trkpt>
      <trkpt lat="35.773386970" lon="-106.267358070">
        <ele>1817.400</ele>
        <time>2022-04-25T20:34:50Z</time>
        <name>WPT.119</name>
      </trkpt>
      <trkpt lat="35.773347240" lon="-106.267360800">
        <ele>1818.500</ele>
        <time>2022-04-25T20:35:33Z</time>
        <name>WPT.120</name>
      </trkpt>
      <trkpt lat="35.773299970" lon="-106.267343150">
        <ele>1819.600</ele>
        <time>2022-04-25T20:35:38Z</time>
        <name>WPT.121</name>
      </trkpt>
      <trkpt lat="35.773258390" lon="-106.267323690">
        <ele>1819.900</ele>
        <time>2022-04-25T20:35:42Z</time>
        <name>WPT.122</name>
      </trkpt>
      <trkpt lat="35.773221900" lon="-106.267298930">
        <ele>1820.600</ele>
        <time>2022-04-25T20:35:46Z</time>
        <name>WPT.123</name>
      </trkpt>
      <trkpt lat="35.773187220" lon="-106.267279030">
        <ele>1821.100</ele>
        <time>2022-04-25T20:35:50Z</time>
        <name>WPT.124</name>
      </trkpt>
      <trkpt lat="35.773151250" lon="-106.267257760">
        <ele>1820.500</ele>
        <time>2022-04-25T20:35:54Z</time>
        <name>WPT.125</name>
      </trkpt>
      <trkpt lat="35.773110370" lon="-106.267249750">
        <ele>1819.200</ele>
        <time>2022-04-25T20:35:58Z</time>
        <name>WPT.126</name>
      </trkpt>
      <trkpt lat="35.773068730" lon="-106.267249130">
        <ele>1818.900</ele>
        <time>2022-04-25T20:36:02Z</time>
        <name>WPT.127</name>
      </trkpt>
      <trkpt lat="35.773024480" lon="-106.267249020">
        <ele>1819.100</ele>
        <time>2022-04-25T20:36:06Z</time>
        <name>WPT.128</name>
      </trkpt>
      <trkpt lat="35.772977950" lon="-106.267245070">
        <ele>1820.000</ele>
        <time>2022-04-25T20:36:10Z</time>
        <name>WPT.129</name>
      </trkpt>
      <trkpt lat="35.772942930" lon="-106.267232890">
        <ele>1820.000</ele>
        <time>2022-04-25T20:36:13Z</time>
        <name>WPT.130</name>
      </trkpt>
      <trkpt lat="35.772903250" lon="-106.267219840">
        <ele>1820.800</ele>
        <time>2022-04-25T20:36:17Z</time>
        <name>WPT.131</name>
      </trkpt>
      <trkpt lat="35.772861300" lon="-106.267218070">
        <ele>1820.400</ele>
        <time>2022-04-25T20:36:21Z</time>
        <name>WPT.132</name>
      </trkpt>
      <trkpt lat="35.772818020" lon="-106.267204770">
        <ele>1820.300</ele>
        <time>2022-04-25T20:36:26Z</time>
        <name>WPT.133</name>
      </trkpt>
      <trkpt lat="35.772779440" lon="-106.267197780">
        <ele>1820.500</ele>
        <time>2022-04-25T20:36:31Z</time>
        <name>WPT.134</name>
      </trkpt>
      <trkpt lat="35.772742130" lon="-106.267197620">
        <ele>1820.300</ele>
        <time>2022-04-25T20:36:35Z</time>
        <name>WPT.135</name>
      </trkpt>
      <trkpt lat="35.772705730" lon="-106.267191050">
        <ele>1820.600</ele>
        <time>2022-04-25T20:36:39Z</time>
        <name>WPT.136</name>
      </trkpt>
      <trkpt lat="35.772669590" lon="-106.267182330">
        <ele>1819.700</ele>
        <time>2022-04-25T20:36:43Z</time>
        <name>WPT.137</name>
      </trkpt>
      <trkpt lat="35.772630920" lon="-106.267172350">
        <ele>1818.800</ele>
        <time>2022-04-25T20:36:49Z</time>
        <name>WPT.138</name>
      </trkpt>
      <trkpt lat="35.772594530" lon="-106.267150250">
        <ele>1817.800</ele>
        <time>2022-04-25T20:36:53Z</time>
        <name>WPT.139</name>
      </trkpt>
      <trkpt lat="35.772559410" lon="-106.267135500">
        <ele>1817.000</ele>
        <time>2022-04-25T20:36:57Z</time>
        <name>WPT.140</name>
      </trkpt>
      <trkpt lat="35.772530730" lon="-106.267106130">
        <ele>1816.400</ele>
        <time>2022-04-25T20:37:02Z</time>
        <name>WPT.141</name>
      </trkpt>
      <trkpt lat="35.772506270" lon="-106.267070260">
        <ele>1817.400</ele>
        <time>2022-04-25T20:37:07Z</time>
        <name>WPT.142</name>
      </trkpt>
      <trkpt lat="35.772474570" lon="-106.267043780">
        <ele>1817.200</ele>
        <time>2022-04-25T20:37:12Z</time>
        <name>WPT.143</name>
      </trkpt>
      <trkpt lat="35.772447620" lon="-106.267010600">
        <ele>1817.800</ele>
        <time>2022-04-25T20:37:16Z</time>
        <name>WPT.144</name>
      </trkpt>
      <trkpt lat="35.772420450" lon="-106.266978420">
        <ele>1817.300</ele>
        <time>2022-04-25T20:37:21Z</time>
        <name>WPT.145</name>
      </trkpt>
      <trkpt lat="35.772398750" lon="-106.266938900">
        <ele>1817.300</ele>
        <time>2022-04-25T20:37:25Z</time>
        <name>WPT.146</name>
      </trkpt>
      <trkpt lat="35.772363740" lon="-106.266919510">
        <ele>1817.100</ele>
        <time>2022-04-25T20:37:29Z</time>
        <name>WPT.147</name>
      </trkpt>
      <trkpt lat="35.772326620" lon="-106.266910480">
        <ele>1814.800</ele>
        <time>2022-04-25T20:37:33Z</time>
        <name>WPT.148</name>
      </trkpt>
      <trkpt lat="35.772294930" lon="-106.266888070">
        <ele>1812.700</ele>
        <time>2022-04-25T20:37:42Z</time>
        <name>WPT.149</name>
      </trkpt>
      <trkpt lat="35.772257010" lon="-106.266871450">
        <ele>1814.000</ele>
        <time>2022-04-25T20:37:47Z</time>
        <name>WPT.150</name>
      </trkpt>
      <trkpt lat="35.772220980" lon="-106.266886370">
        <ele>1814.100</ele>
        <time>2022-04-25T20:38:14Z</time>
        <name>WPT.151</name>
      </trkpt>
      <trkpt lat="35.772180700" lon="-106.266887070">
        <ele>1813.900</ele>
        <time>2022-04-25T20:38:19Z</time>
        <name>WPT.152</name>
      </trkpt>
      <trkpt lat="35.772141460" lon="-106.266874220">
        <ele>1813.800</ele>
        <time>2022-04-25T20:38:24Z</time>
        <name>WPT.153</name>
      </trkpt>
      <trkpt lat="35.772107420" lon="-106.266850380">
        <ele>1813.600</ele>
        <time>2022-04-25T20:38:29Z</time>
        <name>WPT.154</name>
      </trkpt>
      <trkpt lat="35.772071760" lon="-106.266835830">
        <ele>1814.300</ele>
        <time>2022-04-25T20:38:33Z</time>
        <name>WPT.155</name>
      </trkpt>
      <trkpt lat="35.772033780" lon="-106.266821360">
        <ele>1813.700</ele>
        <time>2022-04-25T20:38:38Z</time>
        <name>WPT.156</name>
      </trkpt>
      <trkpt lat="35.771996960" lon="-106.266806380">
        <ele>1813.900</ele>
        <time>2022-04-25T20:38:42Z</time>
        <name>WPT.157</name>
      </trkpt>
      <trkpt lat="35.771956670" lon="-106.266795110">
        <ele>1815.600</ele>
        <time>2022-04-25T20:38:46Z</time>
        <name>WPT.158</name>
      </trkpt>
      <trkpt lat="35.771918380" lon="-106.266801740">
        <ele>1815.200</ele>
        <time>2022-04-25T20:38:50Z</time>
        <name>WPT.159</name>
      </trkpt>
      <trkpt lat="35.771877220" lon="-106.266809680">
        <ele>1815.700</ele>
        <time>2022-04-25T20:38:54Z</time>
        <name>WPT.160</name>
      </trkpt>
      <trkpt lat="35.771833000" lon="-106.266821370">
        <ele>1815.500</ele>
        <time>2022-04-25T20:38:59Z</time>
        <name>WPT.161</name>
      </trkpt>
      <trkpt lat="35.771792270" lon="-106.266825570">
        <ele>1815.200</ele>
        <time>2022-04-25T20:39:04Z</time>
        <name>WPT.162</name>
      </trkpt>
      <trkpt lat="35.771747410" lon="-106.266833620">
        <ele>1813.600</ele>
        <time>2022-04-25T20:39:09Z</time>
        <name>WPT.163</name>
      </trkpt>
      <trkpt lat="35.771703090" lon="-106.266840070">
        <ele>1812.400</ele>
        <time>2022-04-25T20:39:14Z</time>
        <name>WPT.164</name>
      </trkpt>
      <trkpt lat="35.771663030" lon="-106.266863420">
        <ele>1811.900</ele>
        <time>2022-04-25T20:39:19Z</time>
        <name>WPT.165</name>
      </trkpt>
      <trkpt lat="35.771630430" lon="-106.266888910">
        <ele>1813.000</ele>
        <time>2022-04-25T20:39:23Z</time>
        <name>WPT.166</name>
      </trkpt>
      <trkpt lat="35.771594260" lon="-106.266901800">
        <ele>1812.300</ele>
        <time>2022-04-25T20:39:27Z</time>
        <name>WPT.167</name>
      </trkpt>
      <trkpt lat="35.771552210" lon="-106.266903180">
        <ele>1812.700</ele>
        <time>2022-04-25T20:39:32Z</time>
        <name>WPT.168</name>
      </trkpt>
      <trkpt lat="35.771510920" lon="-106.266886900">
        <ele>1811.800</ele>
        <time>2022-04-25T20:39:55Z</time>
        <name>WPT.169</name>
      </trkpt>
      <trkpt lat="35.771466530" lon="-106.266877850">
        <ele>1810.800</ele>
        <time>2022-04-25T20:40:00Z</time>
        <name>WPT.170</name>
      </trkpt>
      <trkpt lat="35.771426490" lon="-106.266851230">
        <ele>1809.800</ele>
        <time>2022-04-25T20:40:04Z</time>
        <name>WPT.171</name>
      </trkpt>
      <trkpt lat="35.771396080" lon="-106.266821940">
        <ele>1809.900</ele>
        <time>2022-04-25T20:40:08Z</time>
        <name>WPT.172</name>
      </trkpt>
      <trkpt lat="35.771364720" lon="-106.266786210">
        <ele>1808.200</ele>
        <time>2022-04-25T20:40:13Z</time>
        <name>WPT.173</name>
      </trkpt>
      <trkpt lat="35.771328030" lon="-106.266781440">
        <ele>1808.800</ele>
        <time>2022-04-25T20:40:17Z</time>
        <name>WPT.174</name>
      </trkpt>
      <trkpt lat="35.771283070" lon="-106.266768840">
        <ele>1809.200</ele>
        <time>2022-04-25T20:40:21Z</time>
        <name>WPT.175</name>
      </trkpt>
      <trkpt lat="35.771241610" lon="-106.266752770">
        <ele>1809.100</ele>
        <time>2022-04-25T20:40:25Z</time>
        <name>WPT.176</name>
      </trkpt>
      <trkpt lat="35.771199300" lon="-106.266740110">
        <ele>1807.300</ele>
        <time>2022-04-25T20:40:30Z</time>
        <name>WPT.177</name>
      </trkpt>
      <trkpt lat="35.771157400" lon="-106.266742760">
        <ele>1807.700</ele>
        <time>2022-04-25T20:40:34Z</time>
        <name>WPT.178</name>
      </trkpt>
      <trkpt lat="35.771113130" lon="-106.266736180">
        <ele>1808.100</ele>
        <time>2022-04-25T20:40:38Z</time>
        <name>WPT.179</name>
      </trkpt>
      <trkpt lat="35.771077550" lon="-106.266719600">
        <ele>1807.500</ele>
        <time>2022-04-25T20:40:42Z</time>
        <name>WPT.180</name>
      </trkpt>
      <trkpt lat="35.771033720" lon="-106.266705820">
        <ele>1805.500</ele>
        <time>2022-04-25T20:40:47Z</time>
        <name>WPT.181</name>
      </trkpt>
      <trkpt lat="35.770996450" lon="-106.266702450">
        <ele>1804.900</ele>
        <time>2022-04-25T20:40:51Z</time>
        <name>WPT.182</name>
      </trkpt>
      <trkpt lat="35.770985140" lon="-106.266746240">
        <ele>1804.900</ele>
        <time>2022-04-25T20:41:03Z</time>
        <name>WPT.183</name>
      </trkpt>
      <trkpt lat="35.770949200" lon="-106.266728740">
        <ele>1804.200</ele>
        <time>2022-04-25T20:43:28Z</time>
        <name>WPT.184</name>
      </trkpt>
      <trkpt lat="35.770911410" lon="-106.266717710">
        <ele>1803.800</ele>
        <time>2022-04-25T20:43:33Z</time>
        <name>WPT.185</name>
      </trkpt>
      <trkpt lat="35.770879390" lon="-106.266693030">
        <ele>1803.400</ele>
        <time>2022-04-25T20:43:38Z</time>
        <name>WPT.186</name>
      </trkpt>
      <trkpt lat="35.770849710" lon="-106.266663400">
        <ele>1803.000</ele>
        <time>2022-04-25T20:43:42Z</time>
        <name>WPT.187</name>
      </trkpt>
      <trkpt lat="35.770815000" lon="-106.266639930">
        <ele>1801.000</ele>
        <time>2022-04-25T20:43:47Z</time>
        <name>WPT.188</name>
      </trkpt>
      <trkpt lat="35.770777840" lon="-106.266634890">
        <ele>1797.200</ele>
        <time>2022-04-25T20:43:53Z</time>
        <name>WPT.189</name>
      </trkpt>
      <trkpt lat="35.770740290" lon="-106.266633970">
        <ele>1796.600</ele>
        <time>2022-04-25T20:43:58Z</time>
        <name>WPT.190</name>
      </trkpt>
      <trkpt lat="35.770698180" lon="-106.266626750">
        <ele>1797.500</ele>
        <time>2022-04-25T20:44:03Z</time>
        <name>WPT.191</name>
      </trkpt>
      <trkpt lat="35.770659050" lon="-106.266610290">
        <ele>1796.600</ele>
        <time>2022-04-25T20:44:08Z</time>
        <name>WPT.192</name>
      </trkpt>
      <trkpt lat="35.770628640" lon="-106.266581960">
        <ele>1796.700</ele>
        <time>2022-04-25T20:44:12Z</time>
        <name>WPT.193</name>
      </trkpt>
      <trkpt lat="35.770601740" lon="-106.266540690">
        <ele>1795.900</ele>
        <time>2022-04-25T20:44:17Z</time>
        <name>WPT.194</name>
      </trkpt>
      <trkpt lat="35.770592450" lon="-106.266492610">
        <ele>1797.300</ele>
        <time>2022-04-25T20:44:21Z</time>
        <name>WPT.195</name>
      </trkpt>
      <trkpt lat="35.770570000" lon="-106.266446640">
        <ele>1797.100</ele>
        <time>2022-04-25T20:44:26Z</time>
        <name>WPT.196</name>
      </trkpt>
      <trkpt lat="35.770543120" lon="-106.266408510">
        <ele>1795.700</ele>
        <time>2022-04-25T20:44:33Z</time>
        <name>WPT.197</name>
      </trkpt>
      <trkpt lat="35.770501020" lon="-106.266386770">
        <ele>1796.100</ele>
        <time>2022-04-25T20:45:34Z</time>
        <name>WPT.198</name>
      </trkpt>
      <trkpt lat="35.770474020" lon="-106.266355310">
        <ele>1795.600</ele>
        <time>2022-04-25T20:45:38Z</time>
        <name>WPT.199</name>
      </trkpt>
      <trkpt lat="35.770443810" lon="-106.266327390">
        <ele>1794.900</ele>
        <time>2022-04-25T20:45:42Z</time>
        <name>WPT.200</name>
      </trkpt>
      <trkpt lat="35.770410130" lon="-106.266309760">
        <ele>1793.700</ele>
        <time>2022-04-25T20:45:47Z</time>
        <name>WPT.201</name>
      </trkpt>
      <trkpt lat="35.770378870" lon="-106.266286240">
        <ele>1793.600</ele>
        <time>2022-04-25T20:45:51Z</time>
        <name>WPT.202</name>
      </trkpt>
      <trkpt lat="35.770348930" lon="-106.266254240">
        <ele>1792.600</ele>
        <time>2022-04-25T20:45:57Z</time>
        <name>WPT.203</name>
      </trkpt>
      <trkpt lat="35.770316520" lon="-106.266226120">
        <ele>1792.300</ele>
        <time>2022-04-25T20:46:03Z</time>
        <name>WPT.204</name>
      </trkpt>
      <trkpt lat="35.770290190" lon="-106.266184940">
        <ele>1792.400</ele>
        <time>2022-04-25T20:46:08Z</time>
        <name>WPT.205</name>
      </trkpt>
      <trkpt lat="35.770256880" lon="-106.266149870">
        <ele>1793.300</ele>
        <time>2022-04-25T20:46:13Z</time>
        <name>WPT.206</name>
      </trkpt>
      <trkpt lat="35.770226060" lon="-106.266119510">
        <ele>1795.300</ele>
        <time>2022-04-25T20:46:17Z</time>
        <name>WPT.207</name>
      </trkpt>
      <trkpt lat="35.770192300" lon="-106.266091150">
        <ele>1795.000</ele>
        <time>2022-04-25T20:46:23Z</time>
        <name>WPT.208</name>
      </trkpt>
      <trkpt lat="35.770153940" lon="-106.266076700">
        <ele>1792.400</ele>
        <time>2022-04-25T20:46:35Z</time>
        <name>WPT.209</name>
      </trkpt>
      <trkpt lat="35.770125090" lon="-106.266049030">
        <ele>1793.600</ele>
        <time>2022-04-25T20:46:40Z</time>
        <name>WPT.210</name>
      </trkpt>
      <trkpt lat="35.770100900" lon="-106.266015150">
        <ele>1792.400</ele>
        <time>2022-04-25T20:46:47Z</time>
        <name>WPT.211</name>
      </trkpt>
      <trkpt lat="35.770066340" lon="-106.265996510">
        <ele>1791.000</ele>
        <time>2022-04-25T20:46:52Z</time>
        <name>WPT.212</name>
      </trkpt>
      <trkpt lat="35.770033600" lon="-106.265964020">
        <ele>1790.600</ele>
        <time>2022-04-25T20:46:58Z</time>
        <name>WPT.213</name>
      </trkpt>
      <trkpt lat="35.770003190" lon="-106.265931380">
        <ele>1789.800</ele>
        <time>2022-04-25T20:47:04Z</time>
        <name>WPT.214</name>
      </trkpt>
      <trkpt lat="35.769973650" lon="-106.265897510">
        <ele>1789.100</ele>
        <time>2022-04-25T20:47:09Z</time>
        <name>WPT.215</name>
      </trkpt>
      <trkpt lat="35.769941290" lon="-106.265868750">
        <ele>1784.600</ele>
        <time>2022-04-25T20:47:14Z</time>
        <name>WPT.216</name>
      </trkpt>
      <trkpt lat="35.769914380" lon="-106.265831820">
        <ele>1784.400</ele>
        <time>2022-04-25T20:47:21Z</time>
        <name>WPT.217</name>
      </trkpt>
      <trkpt lat="35.769899950" lon="-106.265789970">
        <ele>1787.200</ele>
        <time>2022-04-25T20:47:31Z</time>
        <name>WPT.218</name>
      </trkpt>
      <trkpt lat="35.769887670" lon="-106.265743280">
        <ele>1789.100</ele>
        <time>2022-04-25T20:47:37Z</time>
        <name>WPT.219</name>
      </trkpt>
      <trkpt lat="35.769859830" lon="-106.265711500">
        <ele>1788.100</ele>
        <time>2022-04-25T20:47:43Z</time>
        <name>WPT.220</name>
      </trkpt>
      <trkpt lat="35.769840620" lon="-106.265672050">
        <ele>1789.200</ele>
        <time>2022-04-25T20:47:47Z</time>
        <name>WPT.221</name>
      </trkpt>
      <trkpt lat="35.769825650" lon="-106.265625090">
        <ele>1789.300</ele>
        <time>2022-04-25T20:47:52Z</time>
        <name>WPT.222</name>
      </trkpt>
      <trkpt lat="35.769817340" lon="-106.265575410">
        <ele>1787.800</ele>
        <time>2022-04-25T20:47:58Z</time>
        <name>WPT.223</name>
      </trkpt>
      <trkpt lat="35.769802190" lon="-106.265530230">
        <ele>1787.000</ele>
        <time>2022-04-25T20:48:03Z</time>
        <name>WPT.224</name>
      </trkpt>
      <trkpt lat="35.769785450" lon="-106.265483590">
        <ele>1787.600</ele>
        <time>2022-04-25T20:48:08Z</time>
        <name>WPT.225</name>
      </trkpt>
      <trkpt lat="35.769778920" lon="-106.265434040">
        <ele>1786.300</ele>
        <time>2022-04-25T20:48:15Z</time>
        <name>WPT.226</name>
      </trkpt>
      <trkpt lat="35.769764310" lon="-106.265387160">
        <ele>1785.200</ele>
        <time>2022-04-25T20:48:28Z</time>
        <name>WPT.227</name>
      </trkpt>
      <trkpt lat="35.769750320" lon="-106.265343310">
        <ele>1785.500</ele>
        <time>2022-04-25T20:48:32Z</time>
        <name>WPT.228</name>
      </trkpt>
      <trkpt lat="35.769734990" lon="-106.265291700">
        <ele>1784.900</ele>
        <time>2022-04-25T20:48:36Z</time>
        <name>WPT.229</name>
      </trkpt>
      <trkpt lat="35.769727530" lon="-106.265246120">
        <ele>1784.700</ele>
        <time>2022-04-25T20:48:40Z</time>
        <name>WPT.230</name>
      </trkpt>
      <trkpt lat="35.769708290" lon="-106.265206510">
        <ele>1783.800</ele>
        <time>2022-04-25T20:48:45Z</time>
        <name>WPT.231</name>
      </trkpt>
      <trkpt lat="35.769675160" lon="-106.265176410">
        <ele>1784.900</ele>
        <time>2022-04-25T20:48:50Z</time>
        <name>WPT.232</name>
      </trkpt>
      <trkpt lat="35.769649340" lon="-106.265139960">
        <ele>1783.400</ele>
        <time>2022-04-25T20:48:55Z</time>
        <name>WPT.233</name>
      </trkpt>
      <trkpt lat="35.769619980" lon="-106.265100670">
        <ele>1782.400</ele>
        <time>2022-04-25T20:49:00Z</time>
        <name>WPT.234</name>
      </trkpt>
      <trkpt lat="35.769616610" lon="-106.265053890">
        <ele>1781.300</ele>
        <time>2022-04-25T20:49:05Z</time>
        <name>WPT.235</name>
      </trkpt>
      <trkpt lat="35.769591090" lon="-106.265019030">
        <ele>1783.100</ele>
        <time>2022-04-25T20:49:08Z</time>
        <name>WPT.236</name>
      </trkpt>
      <trkpt lat="35.769554110" lon="-106.265003290">
        <ele>1782.200</ele>
        <time>2022-04-25T20:49:14Z</time>
        <name>WPT.237</name>
      </trkpt>
      <trkpt lat="35.769520440" lon="-106.264984840">
        <ele>1782.900</ele>
        <time>2022-04-25T20:49:31Z</time>
        <name>WPT.238</name>
      </trkpt>
      <trkpt lat="35.769508820" lon="-106.264938360">
        <ele>1784.200</ele>
        <time>2022-04-25T20:49:36Z</time>
        <name>WPT.239</name>
      </trkpt>
      <trkpt lat="35.769486750" lon="-106.264897560">
        <ele>1783.700</ele>
        <time>2022-04-25T20:49:40Z</time>
        <name>WPT.240</name>
      </trkpt>
      <trkpt lat="35.769465120" lon="-106.264857170">
        <ele>1781.600</ele>
        <time>2022-04-25T20:49:45Z</time>
        <name>WPT.241</name>
      </trkpt>
      <trkpt lat="35.769429110" lon="-106.264823660">
        <ele>1779.300</ele>
        <time>2022-04-25T20:49:51Z</time>
        <name>WPT.242</name>
      </trkpt>
      <trkpt lat="35.769393880" lon="-106.264808390">
        <ele>1778.500</ele>
        <time>2022-04-25T20:49:57Z</time>
        <name>WPT.243</name>
      </trkpt>
      <trkpt lat="35.769363230" lon="-106.264774590">
        <ele>1777.200</ele>
        <time>2022-04-25T20:50:02Z</time>
        <name>WPT.244</name>
      </trkpt>
      <trkpt lat="35.769336960" lon="-106.264743980">
        <ele>1778.900</ele>
        <time>2022-04-25T20:50:06Z</time>
        <name>WPT.245</name>
      </trkpt>
      <trkpt lat="35.769308680" lon="-106.264714520">
        <ele>1781.100</ele>
        <time>2022-04-25T20:50:10Z</time>
        <name>WPT.246</name>
      </trkpt>
      <trkpt lat="35.769271580" lon="-106.264696900">
        <ele>1781.800</ele>
        <time>2022-04-25T20:50:14Z</time>
        <name>WPT.247</name>
      </trkpt>
      <trkpt lat="35.769250400" lon="-106.264659080">
        <ele>1782.200</ele>
        <time>2022-04-25T20:50:19Z</time>
        <name>WPT.248</name>
      </trkpt>
      <trkpt lat="35.769217570" lon="-106.264632570">
        <ele>1781.000</ele>
        <time>2022-04-25T20:50:28Z</time>
        <name>WPT.249</name>
      </trkpt>
      <trkpt lat="35.769187280" lon="-106.264606870">
        <ele>1779.800</ele>
        <time>2022-04-25T20:50:32Z</time>
        <name>WPT.250</name>
      </trkpt>
      <trkpt lat="35.769142770" lon="-106.264593420">
        <ele>1779.900</ele>
        <time>2022-04-25T20:50:37Z</time>
        <name>WPT.251</name>
      </trkpt>
      <trkpt lat="35.769107330" lon="-106.264581270">
        <ele>1779.800</ele>
        <time>2022-04-25T20:50:41Z</time>
        <name>WPT.252</name>
      </trkpt>
      <trkpt lat="35.769078150" lon="-106.264609370">
        <ele>1778.900</ele>
        <time>2022-04-25T20:51:53Z</time>
        <name>WPT.253</name>
      </trkpt>
      <trkpt lat="35.769042280" lon="-106.264594040">
        <ele>1777.600</ele>
        <time>2022-04-25T20:53:19Z</time>
        <name>WPT.254</name>
      </trkpt>
      <trkpt lat="35.769003740" lon="-106.264571780">
        <ele>1775.700</ele>
        <time>2022-04-25T20:53:26Z</time>
        <name>WPT.255</name>
      </trkpt>
      <trkpt lat="35.768962650" lon="-106.264565320">
        <ele>1775.900</ele>
        <time>2022-04-25T20:53:32Z</time>
        <name>WPT.256</name>
      </trkpt>
      <trkpt lat="35.768931190" lon="-106.264541580">
        <ele>1775.000</ele>
        <time>2022-04-25T20:53:37Z</time>
        <name>WPT.257</name>
      </trkpt>
      <trkpt lat="35.768898410" lon="-106.264518410">
        <ele>1777.300</ele>
        <time>2022-04-25T20:53:42Z</time>
        <name>WPT.258</name>
      </trkpt>
      <trkpt lat="35.768856450" lon="-106.264513860">
        <ele>1774.200</ele>
        <time>2022-04-25T20:53:48Z</time>
        <name>WPT.259</name>
      </trkpt>
      <trkpt lat="35.768820760" lon="-106.264498980">
        <ele>1776.500</ele>
        <time>2022-04-25T20:53:53Z</time>
        <name>WPT.260</name>
      </trkpt>
      <trkpt lat="35.768776340" lon="-106.264494510">
        <ele>1778.400</ele>
        <time>2022-04-25T20:53:58Z</time>
        <name>WPT.261</name>
      </trkpt>
      <trkpt lat="35.768738250" lon="-106.264507670">
        <ele>1773.800</ele>
        <time>2022-04-25T20:54:05Z</time>
        <name>WPT.262</name>
      </trkpt>
      <trkpt lat="35.768697780" lon="-106.264492330">
        <ele>1770.700</ele>
        <time>2022-04-25T20:54:15Z</time>
        <name>WPT.263</name>
      </trkpt>
      <trkpt lat="35.768653620" lon="-106.264470240">
        <ele>1771.500</ele>
        <time>2022-04-25T20:54:19Z</time>
        <name>WPT.264</name>
      </trkpt>
      <trkpt lat="35.768622060" lon="-106.264442670">
        <ele>1770.900</ele>
        <time>2022-04-25T20:54:22Z</time>
        <name>WPT.265</name>
      </trkpt>
      <trkpt lat="35.768584830" lon="-106.264423230">
        <ele>1769.900</ele>
        <time>2022-04-25T20:54:27Z</time>
        <name>WPT.266</name>
      </trkpt>
      <trkpt lat="35.768549960" lon="-106.264411880">
        <ele>1769.900</ele>
        <time>2022-04-25T20:54:31Z</time>
        <name>WPT.267</name>
      </trkpt>
      <trkpt lat="35.768509500" lon="-106.264386110">
        <ele>1769.900</ele>
        <time>2022-04-25T20:54:37Z</time>
        <name>WPT.268</name>
      </trkpt>
      <trkpt lat="35.768468190" lon="-106.264371990">
        <ele>1769.300</ele>
        <time>2022-04-25T20:54:41Z</time>
        <name>WPT.269</name>
      </trkpt>
      <trkpt lat="35.768434200" lon="-106.264352500">
        <ele>1768.200</ele>
        <time>2022-04-25T20:54:45Z</time>
        <name>WPT.270</name>
      </trkpt>
      <trkpt lat="35.768400960" lon="-106.264327280">
        <ele>1769.800</ele>
        <time>2022-04-25T20:54:49Z</time>
        <name>WPT.271</name>
      </trkpt>
      <trkpt lat="35.768373200" lon="-106.264288580">
        <ele>1772.000</ele>
        <time>2022-04-25T20:54:53Z</time>
        <name>WPT.272</name>
      </trkpt>
      <trkpt lat="35.768337150" lon="-106.264264790">
        <ele>1772.000</ele>
        <time>2022-04-25T20:54:57Z</time>
        <name>WPT.273</name>
      </trkpt>
      <trkpt lat="35.768304400" lon="-106.264235540">
        <ele>1773.700</ele>
        <time>2022-04-25T20:55:00Z</time>
        <name>WPT.274</name>
      </trkpt>
      <trkpt lat="35.768280590" lon="-106.264186750">
        <ele>1771.600</ele>
        <time>2022-04-25T20:55:05Z</time>
        <name>WPT.275</name>
      </trkpt>
      <trkpt lat="35.768260720" lon="-106.264140350">
        <ele>1771.400</ele>
        <time>2022-04-25T20:55:09Z</time>
        <name>WPT.276</name>
      </trkpt>
      <trkpt lat="35.768238670" lon="-106.264098760">
        <ele>1767.800</ele>
        <time>2022-04-25T20:55:14Z</time>
        <name>WPT.277</name>
      </trkpt>
      <trkpt lat="35.768225510" lon="-106.264052910">
        <ele>1770.800</ele>
        <time>2022-04-25T20:55:20Z</time>
        <name>WPT.278</name>
      </trkpt>
      <trkpt lat="35.768217950" lon="-106.264001810">
        <ele>1775.300</ele>
        <time>2022-04-25T20:55:26Z</time>
        <name>WPT.279</name>
      </trkpt>
      <trkpt lat="35.768196400" lon="-106.263957210">
        <ele>1774.000</ele>
        <time>2022-04-25T20:55:31Z</time>
        <name>WPT.280</name>
      </trkpt>
      <trkpt lat="35.768180680" lon="-106.263913450">
        <ele>1774.500</ele>
        <time>2022-04-25T20:55:38Z</time>
        <name>WPT.281</name>
      </trkpt>
      <trkpt lat="35.768198430" lon="-106.263868900">
        <ele>1773.400</ele>
        <time>2022-04-25T20:55:57Z</time>
        <name>WPT.282</name>
      </trkpt>
      <trkpt lat="35.768192470" lon="-106.263823730">
        <ele>1773.300</ele>
        <time>2022-04-25T20:56:12Z</time>
        <name>WPT.283</name>
      </trkpt>
      <trkpt lat="35.768203150" lon="-106.263772400">
        <ele>1774.500</ele>
        <time>2022-04-25T20:56:18Z</time>
        <name>WPT.284</name>
      </trkpt>
      <trkpt lat="35.768202100" lon="-106.263727910">
        <ele>1771.700</ele>
        <time>2022-04-25T20:56:25Z</time>
        <name>WPT.285</name>
      </trkpt>
      <trkpt lat="35.768196790" lon="-106.263672440">
        <ele>1771.300</ele>
        <time>2022-04-25T20:56:29Z</time>
        <name>WPT.286</name>
      </trkpt>
      <trkpt lat="35.768200660" lon="-106.263622420">
        <ele>1772.000</ele>
        <time>2022-04-25T20:56:33Z</time>
        <name>WPT.287</name>
      </trkpt>
      <trkpt lat="35.768186860" lon="-106.263577910">
        <ele>1769.000</ele>
        <time>2022-04-25T20:56:37Z</time>
        <name>WPT.288</name>
      </trkpt>
      <trkpt lat="35.768156240" lon="-106.263548470">
        <ele>1768.300</ele>
        <time>2022-04-25T20:58:32Z</time>
        <name>WPT.289</name>
      </trkpt>
      <trkpt lat="35.768125240" lon="-106.263516840">
        <ele>1768.900</ele>
        <time>2022-04-25T20:58:36Z</time>
        <name>WPT.290</name>
      </trkpt>
      <trkpt lat="35.768091920" lon="-106.263484190">
        <ele>1766.800</ele>
        <time>2022-04-25T20:58:41Z</time>
        <name>WPT.291</name>
      </trkpt>
      <trkpt lat="35.768067930" lon="-106.263449360">
        <ele>1765.800</ele>
        <time>2022-04-25T20:58:46Z</time>
        <name>WPT.292</name>
      </trkpt>
      <trkpt lat="35.768054140" lon="-106.263404440">
        <ele>1763.600</ele>
        <time>2022-04-25T20:58:52Z</time>
        <name>WPT.293</name>
      </trkpt>
      <trkpt lat="35.768043050" lon="-106.263358270">
        <ele>1763.000</ele>
        <time>2022-04-25T20:58:57Z</time>
        <name>WPT.294</name>
      </trkpt>
      <trkpt lat="35.768020430" lon="-106.263313580">
        <ele>1761.800</ele>
        <time>2022-04-25T20:59:02Z</time>
        <name>WPT.295</name>
      </trkpt>
      <trkpt lat="35.767993930" lon="-106.263281910">
        <ele>1764.200</ele>
        <time>2022-04-25T20:59:12Z</time>
        <name>WPT.296</name>
      </trkpt>
      <trkpt lat="35.767961830" lon="-106.263251270">
        <ele>1766.400</ele>
        <time>2022-04-25T20:59:17Z</time>
        <name>WPT.297</name>
      </trkpt>
      <trkpt lat="35.767941440" lon="-106.263209970">
        <ele>1766.100</ele>
        <time>2022-04-25T20:59:21Z</time>
        <name>WPT.298</name>
      </trkpt>
      <trkpt lat="35.767923010" lon="-106.263169280">
        <ele>1765.900</ele>
        <time>2022-04-25T20:59:27Z</time>
        <name>WPT.299</name>
      </trkpt>
      <trkpt lat="35.767891600" lon="-106.263129410">
        <ele>1765.400</ele>
        <time>2022-04-25T20:59:32Z</time>
        <name>WPT.300</name>
      </trkpt>
      <trkpt lat="35.767866940" lon="-106.263093580">
        <ele>1764.900</ele>
        <time>2022-04-25T20:59:35Z</time>
        <name>WPT.301</name>
      </trkpt>
      <trkpt lat="35.767832990" lon="-106.263054490">
        <ele>1764.300</ele>
        <time>2022-04-25T20:59:39Z</time>
        <name>WPT.302</name>
      </trkpt>
      <trkpt lat="35.767802980" lon="-106.263010410">
        <ele>1763.600</ele>
        <time>2022-04-25T20:59:44Z</time>
        <name>WPT.303</name>
      </trkpt>
      <trkpt lat="35.767779880" lon="-106.262975170">
        <ele>1763.700</ele>
        <time>2022-04-25T20:59:49Z</time>
        <name>WPT.304</name>
      </trkpt>
      <trkpt lat="35.767750270" lon="-106.262938020">
        <ele>1763.200</ele>
        <time>2022-04-25T20:59:53Z</time>
        <name>WPT.305</name>
      </trkpt>
      <trkpt lat="35.767727790" lon="-106.262899550">
        <ele>1762.700</ele>
        <time>2022-04-25T20:59:57Z</time>
        <name>WPT.306</name>
      </trkpt>
      <trkpt lat="35.767693760" lon="-106.262875250">
        <ele>1761.700</ele>
        <time>2022-04-25T21:00:02Z</time>
        <name>WPT.307</name>
      </trkpt>
      <trkpt lat="35.767659350" lon="-106.262853120">
        <ele>1761.100</ele>
        <time>2022-04-25T21:00:07Z</time>
        <name>WPT.308</name>
      </trkpt>
      <trkpt lat="35.767639930" lon="-106.262810940">
        <ele>1761.900</ele>
        <time>2022-04-25T21:00:38Z</time>
        <name>WPT.309</name>
      </trkpt>
      <trkpt lat="35.767622200" lon="-106.262769140">
        <ele>1762.000</ele>
        <time>2022-04-25T21:00:42Z</time>
        <name>WPT.310</name>
      </trkpt>
      <trkpt lat="35.767601680" lon="-106.262728470">
        <ele>1758.700</ele>
        <time>2022-04-25T21:00:45Z</time>
        <name>WPT.311</name>
      </trkpt>
      <trkpt lat="35.767578630" lon="-106.262690620">
        <ele>1756.700</ele>
        <time>2022-04-25T21:00:49Z</time>
        <name>WPT.312</name>
      </trkpt>
      <trkpt lat="35.767557040" lon="-106.262650740">
        <ele>1755.100</ele>
        <time>2022-04-25T21:00:53Z</time>
        <name>WPT.313</name>
      </trkpt>
      <trkpt lat="35.767529250" lon="-106.262617500">
        <ele>1756.300</ele>
        <time>2022-04-25T21:00:56Z</time>
        <name>WPT.314</name>
      </trkpt>
      <trkpt lat="35.767505220" lon="-106.262578150">
        <ele>1755.700</ele>
        <time>2022-04-25T21:01:00Z</time>
        <name>WPT.315</name>
      </trkpt>
      <trkpt lat="35.767499970" lon="-106.262533310">
        <ele>1757.600</ele>
        <time>2022-04-25T21:01:04Z</time>
        <name>WPT.316</name>
      </trkpt>
      <trkpt lat="35.767486840" lon="-106.262484020">
        <ele>1759.600</ele>
        <time>2022-04-25T21:01:08Z</time>
        <name>WPT.317</name>
      </trkpt>
      <trkpt lat="35.767469700" lon="-106.262443420">
        <ele>1761.600</ele>
        <time>2022-04-25T21:01:12Z</time>
        <name>WPT.318</name>
      </trkpt>
      <trkpt lat="35.767444120" lon="-106.262401950">
        <ele>1759.700</ele>
        <time>2022-04-25T21:01:16Z</time>
        <name>WPT.319</name>
      </trkpt>
      <trkpt lat="35.767418790" lon="-106.262367640">
        <ele>1755.900</ele>
        <time>2022-04-25T21:01:21Z</time>
        <name>WPT.320</name>
      </trkpt>
      <trkpt lat="35.767390050" lon="-106.262338240">
        <ele>1755.900</ele>
        <time>2022-04-25T21:01:25Z</time>
        <name>WPT.321</name>
      </trkpt>
      <trkpt lat="35.767353180" lon="-106.262312060">
        <ele>1753.400</ele>
        <time>2022-04-25T21:01:29Z</time>
        <name>WPT.322</name>
      </trkpt>
      <trkpt lat="35.767315830" lon="-106.262285780">
        <ele>1752.400</ele>
        <time>2022-04-25T21:01:33Z</time>
        <name>WPT.323</name>
      </trkpt>
      <trkpt lat="35.767279000" lon="-106.262259720">
        <ele>1753.600</ele>
        <time>2022-04-25T21:01:37Z</time>
        <name>WPT.324</name>
      </trkpt>
      <trkpt lat="35.767241120" lon="-106.262232350">
        <ele>1753.400</ele>
        <time>2022-04-25T21:01:41Z</time>
        <name>WPT.325</name>
      </trkpt>
      <trkpt lat="35.767204820" lon="-106.262200840">
        <ele>1752.800</ele>
        <time>2022-04-25T21:01:45Z</time>
        <name>WPT.326</name>
      </trkpt>
      <trkpt lat="35.767168280" lon="-106.262174960">
        <ele>1752.200</ele>
        <time>2022-04-25T21:01:50Z</time>
        <name>WPT.327</name>
      </trkpt>
      <trkpt lat="35.767126580" lon="-106.262182660">
        <ele>1752.500</ele>
        <time>2022-04-25T21:02:52Z</time>
        <name>WPT.328</name>
      </trkpt>
      <trkpt lat="35.767088190" lon="-106.262169500">
        <ele>1752.100</ele>
        <time>2022-04-25T21:02:57Z</time>
        <name>WPT.329</name>
      </trkpt>
      <trkpt lat="35.767058180" lon="-106.262132950">
        <ele>1753.100</ele>
        <time>2022-04-25T21:03:01Z</time>
        <name>WPT.330</name>
      </trkpt>
      <trkpt lat="35.767022270" lon="-106.262107870">
        <ele>1752.800</ele>
        <time>2022-04-25T21:03:05Z</time>
        <name>WPT.331</name>
      </trkpt>
      <trkpt lat="35.766988230" lon="-106.262087980">
        <ele>1753.100</ele>
        <time>2022-04-25T21:03:09Z</time>
        <name>WPT.332</name>
      </trkpt>
      <trkpt lat="35.766957840" lon="-106.262057000">
        <ele>1753.500</ele>
        <time>2022-04-25T21:03:14Z</time>
        <name>WPT.333</name>
      </trkpt>
      <trkpt lat="35.766915220" lon="-106.262054620">
        <ele>1752.800</ele>
        <time>2022-04-25T21:03:19Z</time>
        <name>WPT.334</name>
      </trkpt>
      <trkpt lat="35.766878060" lon="-106.262050500">
        <ele>1751.400</ele>
        <time>2022-04-25T21:03:23Z</time>
        <name>WPT.335</name>
      </trkpt>
      <trkpt lat="35.766837550" lon="-106.262024580">
        <ele>1753.000</ele>
        <time>2022-04-25T21:03:27Z</time>
        <name>WPT.336</name>
      </trkpt>
      <trkpt lat="35.766805440" lon="-106.261999150">
        <ele>1754.800</ele>
        <time>2022-04-25T21:03:31Z</time>
        <name>WPT.337</name>
      </trkpt>
      <trkpt lat="35.766771550" lon="-106.261983630">
        <ele>1755.700</ele>
        <time>2022-04-25T21:03:36Z</time>
        <name>WPT.338</name>
      </trkpt>
      <trkpt lat="35.766739300" lon="-106.261948710">
        <ele>1758.600</ele>
        <time>2022-04-25T21:03:41Z</time>
        <name>WPT.339</name>
      </trkpt>
      <trkpt lat="35.766723010" lon="-106.261900730">
        <ele>1759.500</ele>
        <time>2022-04-25T21:03:48Z</time>
        <name>WPT.340</name>
      </trkpt>
      <trkpt lat="35.766695410" lon="-106.261865040">
        <ele>1760.800</ele>
        <time>2022-04-25T21:03:53Z</time>
        <name>WPT.341</name>
      </trkpt>
      <trkpt lat="35.766667520" lon="-106.261827090">
        <ele>1760.500</ele>
        <time>2022-04-25T21:03:58Z</time>
        <name>WPT.342</name>
      </trkpt>
      <trkpt lat="35.766646060" lon="-106.261784470">
        <ele>1759.900</ele>
        <time>2022-04-25T21:04:02Z</time>
        <name>WPT.343</name>
      </trkpt>
      <trkpt lat="35.766605200" lon="-106.261763010">
        <ele>1759.200</ele>
        <time>2022-04-25T21:04:06Z</time>
        <name>WPT.344</name>
      </trkpt>
      <trkpt lat="35.766568790" lon="-106.261741800">
        <ele>1758.500</ele>
        <time>2022-04-25T21:04:24Z</time>
        <name>WPT.345</name>
      </trkpt>
      <trkpt lat="35.766533390" lon="-106.261726620">
        <ele>1758.500</ele>
        <time>2022-04-25T21:04:27Z</time>
        <name>WPT.346</name>
      </trkpt>
      <trkpt lat="35.766494830" lon="-106.261710670">
        <ele>1756.800</ele>
        <time>2022-04-25T21:04:32Z</time>
        <name>WPT.347</name>
      </trkpt>
      <trkpt lat="35.766466020" lon="-106.261680070">
        <ele>1756.700</ele>
        <time>2022-04-25T21:04:36Z</time>
        <name>WPT.348</name>
      </trkpt>
      <trkpt lat="35.766431660" lon="-106.261665300">
        <ele>1756.900</ele>
        <time>2022-04-25T21:04:40Z</time>
        <name>WPT.349</name>
      </trkpt>
      <trkpt lat="35.766391270" lon="-106.261646270">
        <ele>1756.700</ele>
        <time>2022-04-25T21:04:45Z</time>
        <name>WPT.350</name>
      </trkpt>
      <trkpt lat="35.766357790" lon="-106.261619180">
        <ele>1755.500</ele>
        <time>2022-04-25T21:04:59Z</time>
        <name>WPT.351</name>
      </trkpt>
      <trkpt lat="35.766322290" lon="-106.261610130">
        <ele>1752.400</ele>
        <time>2022-04-25T21:05:08Z</time>
        <name>WPT.352</name>
      </trkpt>
      <trkpt lat="35.766284040" lon="-106.261597620">
        <ele>1750.500</ele>
        <time>2022-04-25T21:05:13Z</time>
        <name>WPT.353</name>
      </trkpt>
      <trkpt lat="35.766251230" lon="-106.261569720">
        <ele>1749.500</ele>
        <time>2022-04-25T21:05:18Z</time>
        <name>WPT.354</name>
      </trkpt>
      <trkpt lat="35.766222030" lon="-106.261539120">
        <ele>1749.600</ele>
        <time>2022-04-25T21:05:23Z</time>
        <name>WPT.355</name>
      </trkpt>
      <trkpt lat="35.766192850" lon="-106.261507630">
        <ele>1750.700</ele>
        <time>2022-04-25T21:07:12Z</time>
        <name>WPT.356</name>
      </trkpt>
      <trkpt lat="35.766153170" lon="-106.261487010">
        <ele>1750.300</ele>
        <time>2022-04-25T21:07:17Z</time>
        <name>WPT.357</name>
      </trkpt>
      <trkpt lat="35.766121370" lon="-106.261456570">
        <ele>1751.800</ele>
        <time>2022-04-25T21:07:22Z</time>
        <name>WPT.358</name>
      </trkpt>
      <trkpt lat="35.766090650" lon="-106.261419470">
        <ele>1752.800</ele>
        <time>2022-04-25T21:07:26Z</time>
        <name>WPT.359</name>
      </trkpt>
      <trkpt lat="35.766063150" lon="-106.261381730">
        <ele>1752.100</ele>
        <time>2022-04-25T21:07:30Z</time>
        <name>WPT.360</name>
      </trkpt>
      <trkpt lat="35.766035270" lon="-106.261345610">
        <ele>1752.300</ele>
        <time>2022-04-25T21:07:36Z</time>
        <name>WPT.361</name>
      </trkpt>
      <trkpt lat="35.766019010" lon="-106.261298660">
        <ele>1752.600</ele>
        <time>2022-04-25T21:07:43Z</time>
        <name>WPT.362</name>
      </trkpt>
      <trkpt lat="35.765991800" lon="-106.261268690">
        <ele>1750.500</ele>
        <time>2022-04-25T21:07:47Z</time>
        <name>WPT.363</name>
      </trkpt>
      <trkpt lat="35.765978030" lon="-106.261227470">
        <ele>1751.700</ele>
        <time>2022-04-25T21:07:51Z</time>
        <name>WPT.364</name>
      </trkpt>
      <trkpt lat="35.765974030" lon="-106.261181700">
        <ele>1755.000</ele>
        <time>2022-04-25T21:07:55Z</time>
        <name>WPT.365</name>
      </trkpt>
      <trkpt lat="35.765951240" lon="-106.261145020">
        <ele>1756.000</ele>
        <time>2022-04-25T21:07:59Z</time>
        <name>WPT.366</name>
      </trkpt>
      <trkpt lat="35.765914630" lon="-106.261137100">
        <ele>1754.800</ele>
        <time>2022-04-25T21:08:04Z</time>
        <name>WPT.367</name>
      </trkpt>
      <trkpt lat="35.765874140" lon="-106.261129250">
        <ele>1754.200</ele>
        <time>2022-04-25T21:08:29Z</time>
        <name>WPT.368</name>
      </trkpt>
      <trkpt lat="35.765847690" lon="-106.261089240">
        <ele>1755.600</ele>
        <time>2022-04-25T21:08:35Z</time>
        <name>WPT.369</name>
      </trkpt>
      <trkpt lat="35.765827750" lon="-106.261045760">
        <ele>1757.700</ele>
        <time>2022-04-25T21:08:39Z</time>
        <name>WPT.370</name>
      </trkpt>
      <trkpt lat="35.765802300" lon="-106.261003830">
        <ele>1757.600</ele>
        <time>2022-04-25T21:08:44Z</time>
        <name>WPT.371</name>
      </trkpt>
      <trkpt lat="35.765793170" lon="-106.260956180">
        <ele>1759.900</ele>
        <time>2022-04-25T21:08:49Z</time>
        <name>WPT.372</name>
      </trkpt>
      <trkpt lat="35.765756880" lon="-106.260924640">
        <ele>1759.100</ele>
        <time>2022-04-25T21:08:53Z</time>
        <name>WPT.373</name>
      </trkpt>
      <trkpt lat="35.765735900" lon="-106.260887540">
        <ele>1758.700</ele>
        <time>2022-04-25T21:08:57Z</time>
        <name>WPT.374</name>
      </trkpt>
      <trkpt lat="35.765707510" lon="-106.260843660">
        <ele>1758.700</ele>
        <time>2022-04-25T21:09:02Z</time>
        <name>WPT.375</name>
      </trkpt>
      <trkpt lat="35.765675920" lon="-106.260813200">
        <ele>1760.300</ele>
        <time>2022-04-25T21:09:07Z</time>
        <name>WPT.376</name>
      </trkpt>
      <trkpt lat="35.765653320" lon="-106.260774770">
        <ele>1759.700</ele>
        <time>2022-04-25T21:09:11Z</time>
        <name>WPT.377</name>
      </trkpt>
      <trkpt lat="35.765631950" lon="-106.260733540">
        <ele>1758.200</ele>
        <time>2022-04-25T21:09:15Z</time>
        <name>WPT.378</name>
      </trkpt>
      <trkpt lat="35.765608950" lon="-106.260692630">
        <ele>1756.400</ele>
        <time>2022-04-25T21:09:19Z</time>
        <name>WPT.379</name>
      </trkpt>
      <trkpt lat="35.765587340" lon="-106.260657020">
        <ele>1756.200</ele>
        <time>2022-04-25T21:09:23Z</time>
        <name>WPT.380</name>
      </trkpt>
      <trkpt lat="35.765557680" lon="-106.260629150">
        <ele>1755.800</ele>
        <time>2022-04-25T21:09:27Z</time>
        <name>WPT.381</name>
      </trkpt>
      <trkpt lat="35.765514660" lon="-106.260611900">
        <ele>1754.400</ele>
        <time>2022-04-25T21:09:30Z</time>
        <name>WPT.382</name>
      </trkpt>
      <trkpt lat="35.765468260" lon="-106.260609410">
        <ele>1752.000</ele>
        <time>2022-04-25T21:09:33Z</time>
        <name>WPT.383</name>
      </trkpt>
      <trkpt lat="35.765433490" lon="-106.260629340">
        <ele>1749.700</ele>
        <time>2022-04-25T21:09:37Z</time>
        <name>WPT.384</name>
      </trkpt>
      <trkpt lat="35.765395670" lon="-106.260634800">
        <ele>1747.600</ele>
        <time>2022-04-25T21:09:47Z</time>
        <name>WPT.385</name>
      </trkpt>
      <trkpt lat="35.765349530" lon="-106.260627470">
        <ele>1748.500</ele>
        <time>2022-04-25T21:09:51Z</time>
        <name>WPT.386</name>
      </trkpt>
      <trkpt lat="35.765308350" lon="-106.260628990">
        <ele>1746.300</ele>
        <time>2022-04-25T21:09:55Z</time>
        <name>WPT.387</name>
      </trkpt>
      <trkpt lat="35.765263190" lon="-106.260630610">
        <ele>1747.600</ele>
        <time>2022-04-25T21:10:00Z</time>
        <name>WPT.388</name>
      </trkpt>
      <trkpt lat="35.765222540" lon="-106.260631970">
        <ele>1747.600</ele>
        <time>2022-04-25T21:10:04Z</time>
        <name>WPT.389</name>
      </trkpt>
      <trkpt lat="35.765181550" lon="-106.260613570">
        <ele>1750.500</ele>
        <time>2022-04-25T21:10:08Z</time>
        <name>WPT.390</name>
      </trkpt>
      <trkpt lat="35.765135230" lon="-106.260619480">
        <ele>1751.000</ele>
        <time>2022-04-25T21:10:12Z</time>
        <name>WPT.391</name>
      </trkpt>
      <trkpt lat="35.765096520" lon="-106.260633900">
        <ele>1752.300</ele>
        <time>2022-04-25T21:10:16Z</time>
        <name>WPT.392</name>
      </trkpt>
      <trkpt lat="35.765058860" lon="-106.260647090">
        <ele>1753.700</ele>
        <time>2022-04-25T21:10:20Z</time>
        <name>WPT.393</name>
      </trkpt>
      <trkpt lat="35.765038060" lon="-106.260686020">
        <ele>1752.500</ele>
        <time>2022-04-25T21:10:23Z</time>
        <name>WPT.394</name>
      </trkpt>
      <trkpt lat="35.765014880" lon="-106.260723220">
        <ele>1757.400</ele>
        <time>2022-04-25T21:10:27Z</time>
        <name>WPT.395</name>
      </trkpt>
      <trkpt lat="35.764992570" lon="-106.260759690">
        <ele>1754.900</ele>
        <time>2022-04-25T21:10:31Z</time>
        <name>WPT.396</name>
      </trkpt>
      <trkpt lat="35.764972450" lon="-106.260803590">
        <ele>1753.900</ele>
        <time>2022-04-25T21:11:29Z</time>
        <name>WPT.397</name>
      </trkpt>
      <trkpt lat="35.764928760" lon="-106.260814540">
        <ele>1758.100</ele>
        <time>2022-04-25T21:11:34Z</time>
        <name>WPT.398</name>
      </trkpt>
      <trkpt lat="35.764896710" lon="-106.260790660">
        <ele>1753.300</ele>
        <time>2022-04-25T21:11:43Z</time>
        <name>WPT.399</name>
      </trkpt>
      <trkpt lat="35.764876620" lon="-106.260753880">
        <ele>1755.600</ele>
        <time>2022-04-25T21:11:49Z</time>
        <name>WPT.400</name>
      </trkpt>
      <trkpt lat="35.764850640" lon="-106.260716240">
        <ele>1755.700</ele>
        <time>2022-04-25T21:11:55Z</time>
        <name>WPT.401</name>
      </trkpt>
      <trkpt lat="35.764833770" lon="-106.260671040">
        <ele>1758.100</ele>
        <time>2022-04-25T21:12:01Z</time>
        <name>WPT.402</name>
      </trkpt>
      <trkpt lat="35.764829370" lon="-106.260623620">
        <ele>1761.400</ele>
        <time>2022-04-25T21:12:08Z</time>
        <name>WPT.403</name>
      </trkpt>
      <trkpt lat="35.764824680" lon="-106.260577110">
        <ele>1763.400</ele>
        <time>2022-04-25T21:12:14Z</time>
        <name>WPT.404</name>
      </trkpt>
      <trkpt lat="35.764827140" lon="-106.260530790">
        <ele>1766.500</ele>
        <time>2022-04-25T21:12:20Z</time>
        <name>WPT.405</name>
      </trkpt>
      <trkpt lat="35.764816930" lon="-106.260486130">
        <ele>1767.700</ele>
        <time>2022-04-25T21:12:24Z</time>
        <name>WPT.406</name>
      </trkpt>
      <trkpt lat="35.764794450" lon="-106.260445120">
        <ele>1767.800</ele>
        <time>2022-04-25T21:12:29Z</time>
        <name>WPT.407</name>
      </trkpt>
      <trkpt lat="35.764772070" lon="-106.260394550">
        <ele>1768.000</ele>
        <time>2022-04-25T21:12:34Z</time>
        <name>WPT.408</name>
      </trkpt>
      <trkpt lat="35.764750440" lon="-106.260354710">
        <ele>1768.000</ele>
        <time>2022-04-25T21:12:38Z</time>
        <name>WPT.409</name>
      </trkpt>
      <trkpt lat="35.764730730" lon="-106.260312270">
        <ele>1767.900</ele>
        <time>2022-04-25T21:12:42Z</time>
        <name>WPT.410</name>
      </trkpt>
      <trkpt lat="35.764709620" lon="-106.260262710">
        <ele>1769.500</ele>
        <time>2022-04-25T21:12:47Z</time>
        <name>WPT.411</name>
      </trkpt>
      <trkpt lat="35.764692070" lon="-106.260212470">
        <ele>1772.300</ele>
        <time>2022-04-25T21:12:52Z</time>
        <name>WPT.412</name>
      </trkpt>
      <trkpt lat="35.764686320" lon="-106.260160960">
        <ele>1773.300</ele>
        <time>2022-04-25T21:12:57Z</time>
        <name>WPT.413</name>
      </trkpt>
      <trkpt lat="35.764656400" lon="-106.260127700">
        <ele>1772.400</ele>
        <time>2022-04-25T21:13:00Z</time>
        <name>WPT.414</name>
      </trkpt>
      <trkpt lat="35.764631840" lon="-106.260084650">
        <ele>1771.400</ele>
        <time>2022-04-25T21:13:04Z</time>
        <name>WPT.415</name>
      </trkpt>
      <trkpt lat="35.764595630" lon="-106.260078100">
        <ele>1770.300</ele>
        <time>2022-04-25T21:13:09Z</time>
        <name>WPT.416</name>
      </trkpt>
      <trkpt lat="35.764555660" lon="-106.260079860">
        <ele>1768.500</ele>
        <time>2022-04-25T21:14:14Z</time>
        <name>WPT.417</name>
      </trkpt>
      <trkpt lat="35.764518360" lon="-106.260080400">
        <ele>1769.800</ele>
        <time>2022-04-25T21:14:36Z</time>
        <name>WPT.418</name>
      </trkpt>
      <trkpt lat="35.764478330" lon="-106.260065570">
        <ele>1770.200</ele>
        <time>2022-04-25T21:15:27Z</time>
        <name>WPT.419</name>
      </trkpt>
      <trkpt lat="35.764473390" lon="-106.260018550">
        <ele>1771.400</ele>
        <time>2022-04-25T21:15:32Z</time>
        <name>WPT.420</name>
      </trkpt>
      <trkpt lat="35.764428820" lon="-106.259986460">
        <ele>1764.100</ele>
        <time>2022-04-25T21:15:36Z</time>
        <name>WPT.421</name>
      </trkpt>
      <trkpt lat="35.764399350" lon="-106.259948440">
        <ele>1761.700</ele>
        <time>2022-04-25T21:15:40Z</time>
        <name>WPT.422</name>
      </trkpt>
      <trkpt lat="35.764377690" lon="-106.259900170">
        <ele>1761.000</ele>
        <time>2022-04-25T21:15:44Z</time>
        <name>WPT.423</name>
      </trkpt>
      <trkpt lat="35.764359490" lon="-106.259854830">
        <ele>1762.000</ele>
        <time>2022-04-25T21:15:48Z</time>
        <name>WPT.424</name>
      </trkpt>
      <trkpt lat="35.764331920" lon="-106.259815430">
        <ele>1761.800</ele>
        <time>2022-04-25T21:15:52Z</time>
        <name>WPT.425</name>
      </trkpt>
      <trkpt lat="35.764295070" lon="-106.259784130">
        <ele>1760.300</ele>
        <time>2022-04-25T21:15:56Z</time>
        <name>WPT.426</name>
      </trkpt>
      <trkpt lat="35.764250730" lon="-106.259767840">
        <ele>1757.500</ele>
        <time>2022-04-25T21:16:00Z</time>
        <name>WPT.427</name>
      </trkpt>
      <trkpt lat="35.764214180" lon="-106.259746780">
        <ele>1757.800</ele>
        <time>2022-04-25T21:16:17Z</time>
        <name>WPT.428</name>
      </trkpt>
      <trkpt lat="35.764177310" lon="-106.259745340">
        <ele>1755.400</ele>
        <time>2022-04-25T21:16:21Z</time>
        <name>WPT.429</name>
      </trkpt>
      <trkpt lat="35.764133640" lon="-106.259743210">
        <ele>1755.700</ele>
        <time>2022-04-25T21:16:26Z</time>
        <name>WPT.430</name>
      </trkpt>
      <trkpt lat="35.764088770" lon="-106.259744680">
        <ele>1755.000</ele>
        <time>2022-04-25T21:16:31Z</time>
        <name>WPT.431</name>
      </trkpt>
      <trkpt lat="35.764052110" lon="-106.259751810">
        <ele>1754.500</ele>
        <time>2022-04-25T21:16:35Z</time>
        <name>WPT.432</name>
      </trkpt>
      <trkpt lat="35.764007580" lon="-106.259748020">
        <ele>1754.300</ele>
        <time>2022-04-25T21:16:39Z</time>
        <name>WPT.433</name>
      </trkpt>
      <trkpt lat="35.763965040" lon="-106.259742000">
        <ele>1755.200</ele>
        <time>2022-04-25T21:16:43Z</time>
        <name>WPT.434</name>
      </trkpt>
      <trkpt lat="35.763942830" lon="-106.259778120">
        <ele>1760.100</ele>
        <time>2022-04-25T21:17:05Z</time>
        <name>WPT.435</name>
      </trkpt>
      <trkpt lat="35.763909840" lon="-106.259758530">
        <ele>1761.000</ele>
        <time>2022-04-25T21:18:16Z</time>
        <name>WPT.436</name>
      </trkpt>
      <trkpt lat="35.763871860" lon="-106.259744410">
        <ele>1759.700</ele>
        <time>2022-04-25T21:18:20Z</time>
        <name>WPT.437</name>
      </trkpt>
      <trkpt lat="35.763833120" lon="-106.259733520">
        <ele>1761.000</ele>
        <time>2022-04-25T21:18:24Z</time>
        <name>WPT.438</name>
      </trkpt>
      <trkpt lat="35.763796070" lon="-106.259737620">
        <ele>1760.400</ele>
        <time>2022-04-25T21:18:28Z</time>
        <name>WPT.439</name>
      </trkpt>
      <trkpt lat="35.763759210" lon="-106.259731210">
        <ele>1761.100</ele>
        <time>2022-04-25T21:18:33Z</time>
        <name>WPT.440</name>
      </trkpt>
      <trkpt lat="35.763721970" lon="-106.259724620">
        <ele>1760.800</ele>
        <time>2022-04-25T21:18:37Z</time>
        <name>WPT.441</name>
      </trkpt>
      <trkpt lat="35.763684750" lon="-106.259743550">
        <ele>1763.000</ele>
        <time>2022-04-25T21:18:59Z</time>
        <name>WPT.442</name>
      </trkpt>
      <trkpt lat="35.763645910" lon="-106.259745170">
        <ele>1763.300</ele>
        <time>2022-04-25T21:19:03Z</time>
        <name>WPT.443</name>
      </trkpt>
      <trkpt lat="35.763604790" lon="-106.259727290">
        <ele>1765.700</ele>
        <time>2022-04-25T21:19:07Z</time>
        <name>WPT.444</name>
      </trkpt>
      <trkpt lat="35.763569300" lon="-106.259736730">
        <ele>1766.800</ele>
        <time>2022-04-25T21:19:29Z</time>
        <name>WPT.445</name>
      </trkpt>
      <trkpt lat="35.763541010" lon="-106.259769870">
        <ele>1766.600</ele>
        <time>2022-04-25T21:19:34Z</time>
        <name>WPT.446</name>
      </trkpt>
      <trkpt lat="35.763539960" lon="-106.259821470">
        <ele>1766.600</ele>
        <time>2022-04-25T21:19:39Z</time>
        <name>WPT.447</name>
      </trkpt>
      <trkpt lat="35.763522360" lon="-106.259861400">
        <ele>1766.500</ele>
        <time>2022-04-25T21:19:44Z</time>
        <name>WPT.448</name>
      </trkpt>
      <trkpt lat="35.763494750" lon="-106.259900660">
        <ele>1763.500</ele>
        <time>2022-04-25T21:19:49Z</time>
        <name>WPT.449</name>
      </trkpt>
      <trkpt lat="35.763463380" lon="-106.259928460">
        <ele>1760.400</ele>
        <time>2022-04-25T21:19:56Z</time>
        <name>WPT.450</name>
      </trkpt>
      <trkpt lat="35.763428270" lon="-106.259905240">
        <ele>1762.300</ele>
        <time>2022-04-25T21:20:00Z</time>
        <name>WPT.451</name>
      </trkpt>
      <trkpt lat="35.763394300" lon="-106.259929570">
        <ele>1764.500</ele>
        <time>2022-04-25T21:20:13Z</time>
        <name>WPT.452</name>
      </trkpt>
      <trkpt lat="35.763352580" lon="-106.259935390">
        <ele>1764.700</ele>
        <time>2022-04-25T21:20:19Z</time>
        <name>WPT.453</name>
      </trkpt>
      <trkpt lat="35.763316110" lon="-106.259930880">
        <ele>1765.700</ele>
        <time>2022-04-25T21:20:24Z</time>
        <name>WPT.454</name>
      </trkpt>
      <trkpt lat="35.763281000" lon="-106.259917250">
        <ele>1765.700</ele>
        <time>2022-04-25T21:20:28Z</time>
        <name>WPT.455</name>
      </trkpt>
      <trkpt lat="35.763263070" lon="-106.259877430">
        <ele>1766.700</ele>
        <time>2022-04-25T21:20:38Z</time>
        <name>WPT.456</name>
      </trkpt>
      <trkpt lat="35.763229100" lon="-106.259859670">
        <ele>1766.800</ele>
        <time>2022-04-25T21:20:42Z</time>
        <name>WPT.457</name>
      </trkpt>
      <trkpt lat="35.763193560" lon="-106.259847950">
        <ele>1763.700</ele>
        <time>2022-04-25T21:20:46Z</time>
        <name>WPT.458</name>
      </trkpt>
      <trkpt lat="35.763162560" lon="-106.259875720">
        <ele>1760.900</ele>
        <time>2022-04-25T21:20:57Z</time>
        <name>WPT.459</name>
      </trkpt>
      <trkpt lat="35.763125440" lon="-106.259874030">
        <ele>1762.200</ele>
        <time>2022-04-25T21:21:01Z</time>
        <name>WPT.460</name>
      </trkpt>
      <trkpt lat="35.763083330" lon="-106.259865240">
        <ele>1762.100</ele>
        <time>2022-04-25T21:21:06Z</time>
        <name>WPT.461</name>
      </trkpt>
      <trkpt lat="35.763047240" lon="-106.259837960">
        <ele>1764.800</ele>
        <time>2022-04-25T21:21:09Z</time>
        <name>WPT.462</name>
      </trkpt>
      <trkpt lat="35.763015960" lon="-106.259812710">
        <ele>1763.400</ele>
        <time>2022-04-25T21:21:13Z</time>
        <name>WPT.463</name>
      </trkpt>
      <trkpt lat="35.763005300" lon="-106.259857670">
        <ele>1763.700</ele>
        <time>2022-04-25T21:21:20Z</time>
        <name>WPT.464</name>
      </trkpt>
      <trkpt lat="35.762966410" lon="-106.259847370">
        <ele>1762.300</ele>
        <time>2022-04-25T21:21:26Z</time>
        <name>WPT.465</name>
      </trkpt>
      <trkpt lat="35.762924780" lon="-106.259855580">
        <ele>1759.000</ele>
        <time>2022-04-25T21:21:31Z</time>
        <name>WPT.466</name>
      </trkpt>
      <trkpt lat="35.762895390" lon="-106.259824680">
        <ele>1759.900</ele>
        <time>2022-04-25T21:21:35Z</time>
        <name>WPT.467</name>
      </trkpt>
      <trkpt lat="35.762867490" lon="-106.259796070">
        <ele>1760.400</ele>
        <time>2022-04-25T21:21:41Z</time>
        <name>WPT.468</name>
      </trkpt>
      <trkpt lat="35.762836590" lon="-106.259772800">
        <ele>1760.000</ele>
        <time>2022-04-25T21:21:54Z</time>
        <name>WPT.469</name>
      </trkpt>
      <trkpt lat="35.762797430" lon="-106.259763150">
        <ele>1760.100</ele>
        <time>2022-04-25T21:21:59Z</time>
        <name>WPT.470</name>
      </trkpt>
      <trkpt lat="35.762766960" lon="-106.259787580">
        <ele>1759.500</ele>
        <time>2022-04-25T21:22:09Z</time>
        <name>WPT.471</name>
      </trkpt>
      <trkpt lat="35.762721620" lon="-106.259790190">
        <ele>1757.900</ele>
        <time>2022-04-25T21:22:19Z</time>
        <name>WPT.472</name>
      </trkpt>
      <trkpt lat="35.762681400" lon="-106.259776350">
        <ele>1758.800</ele>
        <time>2022-04-25T21:22:24Z</time>
        <name>WPT.473</name>
      </trkpt>
      <trkpt lat="35.762704340" lon="-106.259812550">
        <ele>1761.700</ele>
        <time>2022-04-25T21:25:46Z</time>
        <name>WPT.474</name>
      </trkpt>
      <trkpt lat="35.762735790" lon="-106.259787700">
        <ele>1764.600</ele>
        <time>2022-04-25T21:25:53Z</time>
        <name>WPT.475</name>
      </trkpt>
      <trkpt lat="35.762772720" lon="-106.259769150">
        <ele>1759.800</ele>
        <time>2022-04-25T21:26:00Z</time>
        <name>WPT.476</name>
      </trkpt>
      <trkpt lat="35.762752100" lon="-106.259813700">
        <ele>1753.100</ele>
        <time>2022-04-25T21:35:35Z</time>
        <name>WPT.477</name>
      </trkpt>
      <trkpt lat="35.762715360" lon="-106.259823890">
        <ele>1752.600</ele>
        <time>2022-04-25T21:35:42Z</time>
        <name>WPT.478</name>
      </trkpt>
      <trkpt lat="35.762678210" lon="-106.259816490">
        <ele>1752.600</ele>
        <time>2022-04-25T21:35:50Z</time>
        <name>WPT.479</name>
      </trkpt>
      <trkpt lat="35.762701700" lon="-106.259862170">
        <ele>1752.600</ele>
        <time>2022-04-25T21:35:53Z</time>
        <name>WPT.480</name>
      </trkpt>
      <trkpt lat="35.762741110" lon="-106.259879470">
        <ele>1752.900</ele>
        <time>2022-04-25T21:35:57Z</time>
        <name>WPT.481</name>
      </trkpt>
      <trkpt lat="35.762774020" lon="-106.259902830">
        <ele>1753.800</ele>
        <time>2022-04-25T21:36:01Z</time>
        <name>WPT.482</name>
      </trkpt>
      <trkpt lat="35.762808550" lon="-106.259927460">
        <ele>1756.800</ele>
        <time>2022-04-25T21:36:05Z</time>
        <name>WPT.483</name>
      </trkpt>
      <trkpt lat="35.762836830" lon="-106.259971680">
        <ele>1759.400</ele>
        <time>2022-04-25T21:36:10Z</time>
        <name>WPT.484</name>
      </trkpt>
      <trkpt lat="35.762871230" lon="-106.260001250">
        <ele>1760.200</ele>
        <time>2022-04-25T21:36:14Z</time>
        <name>WPT.485</name>
      </trkpt>
      <trkpt lat="35.762914930" lon="-106.260013830">
        <ele>1760.600</ele>
        <time>2022-04-25T21:36:18Z</time>
        <name>WPT.486</name>
      </trkpt>
      <trkpt lat="35.762951730" lon="-106.260023040">
        <ele>1762.700</ele>
        <time>2022-04-25T21:36:23Z</time>
        <name>WPT.487</name>
      </trkpt>
      <trkpt lat="35.762995180" lon="-106.260048790">
        <ele>1763.200</ele>
        <time>2022-04-25T21:36:27Z</time>
        <name>WPT.488</name>
      </trkpt>
      <trkpt lat="35.763032630" lon="-106.260048220">
        <ele>1763.100</ele>
        <time>2022-04-25T21:36:30Z</time>
        <name>WPT.489</name>
      </trkpt>
      <trkpt lat="35.763069000" lon="-106.260038010">
        <ele>1763.200</ele>
        <time>2022-04-25T21:36:33Z</time>
        <name>WPT.490</name>
      </trkpt>
      <trkpt lat="35.763113530" lon="-106.260036680">
        <ele>1763.800</ele>
        <time>2022-04-25T21:36:37Z</time>
        <name>WPT.491</name>
      </trkpt>
      <trkpt lat="35.763154090" lon="-106.260051400">
        <ele>1764.800</ele>
        <time>2022-04-25T21:36:41Z</time>
        <name>WPT.492</name>
      </trkpt>
      <trkpt lat="35.763200850" lon="-106.260062300">
        <ele>1765.400</ele>
        <time>2022-04-25T21:36:45Z</time>
        <name>WPT.493</name>
      </trkpt>
      <trkpt lat="35.763244630" lon="-106.260074700">
        <ele>1766.200</ele>
        <time>2022-04-25T21:36:49Z</time>
        <name>WPT.494</name>
      </trkpt>
      <trkpt lat="35.763283820" lon="-106.260080750">
        <ele>1766.200</ele>
        <time>2022-04-25T21:36:52Z</time>
        <name>WPT.495</name>
      </trkpt>
      <trkpt lat="35.763319590" lon="-106.260061770">
        <ele>1768.600</ele>
        <time>2022-04-25T21:36:56Z</time>
        <name>WPT.496</name>
      </trkpt>
      <trkpt lat="35.763356430" lon="-106.260066720">
        <ele>1767.500</ele>
        <time>2022-04-25T21:37:01Z</time>
        <name>WPT.497</name>
      </trkpt>
      <trkpt lat="35.763392070" lon="-106.260046750">
        <ele>1768.600</ele>
        <time>2022-04-25T21:37:06Z</time>
        <name>WPT.498</name>
      </trkpt>
      <trkpt lat="35.763430100" lon="-106.260056580">
        <ele>1767.100</ele>
        <time>2022-04-25T21:37:09Z</time>
        <name>WPT.499</name>
      </trkpt>
      <trkpt lat="35.763471920" lon="-106.260043630">
        <ele>1767.000</ele>
        <time>2022-04-25T21:37:13Z</time>
        <name>WPT.500</name>
      </trkpt>
      <trkpt lat="35.763508110" lon="-106.260016940">
        <ele>1765.400</ele>
        <time>2022-04-25T21:37:17Z</time>
        <name>WPT.501</name>
      </trkpt>
      <trkpt lat="35.763537120" lon="-106.259980620">
        <ele>1764.300</ele>
        <time>2022-04-25T21:37:21Z</time>
        <name>WPT.502</name>
      </trkpt>
      <trkpt lat="35.763575250" lon="-106.259964520">
        <ele>1764.500</ele>
        <time>2022-04-25T21:37:25Z</time>
        <name>WPT.503</name>
      </trkpt>
      <trkpt lat="35.763617220" lon="-106.259942580">
        <ele>1763.100</ele>
        <time>2022-04-25T21:37:29Z</time>
        <name>WPT.504</name>
      </trkpt>
      <trkpt lat="35.763659020" lon="-106.259930300">
        <ele>1761.700</ele>
        <time>2022-04-25T21:37:33Z</time>
        <name>WPT.505</name>
      </trkpt>
      <trkpt lat="35.763695170" lon="-106.259925810">
        <ele>1763.300</ele>
        <time>2022-04-25T21:37:37Z</time>
        <name>WPT.506</name>
      </trkpt>
      <trkpt lat="35.763736010" lon="-106.259933170">
        <ele>1765.400</ele>
        <time>2022-04-25T21:37:42Z</time>
        <name>WPT.507</name>
      </trkpt>
      <trkpt lat="35.763773240" lon="-106.259919610">
        <ele>1765.100</ele>
        <time>2022-04-25T21:37:46Z</time>
        <name>WPT.508</name>
      </trkpt>
      <trkpt lat="35.763809090" lon="-106.259883890">
        <ele>1762.200</ele>
        <time>2022-04-25T21:37:50Z</time>
        <name>WPT.509</name>
      </trkpt>
      <trkpt lat="35.763851300" lon="-106.259859510">
        <ele>1762.200</ele>
        <time>2022-04-25T21:37:54Z</time>
        <name>WPT.510</name>
      </trkpt>
      <trkpt lat="35.763888300" lon="-106.259845870">
        <ele>1763.000</ele>
        <time>2022-04-25T21:37:57Z</time>
        <name>WPT.511</name>
      </trkpt>
      <trkpt lat="35.763925820" lon="-106.259842270">
        <ele>1763.200</ele>
        <time>2022-04-25T21:38:00Z</time>
        <name>WPT.512</name>
      </trkpt>
      <trkpt lat="35.763956750" lon="-106.259812950">
        <ele>1762.900</ele>
        <time>2022-04-25T21:38:03Z</time>
        <name>WPT.513</name>
      </trkpt>
      <trkpt lat="35.763993780" lon="-106.259792060">
        <ele>1764.700</ele>
        <time>2022-04-25T21:38:07Z</time>
        <name>WPT.514</name>
      </trkpt>
      <trkpt lat="35.764029580" lon="-106.259781790">
        <ele>1764.600</ele>
        <time>2022-04-25T21:38:10Z</time>
        <name>WPT.515</name>
      </trkpt>
      <trkpt lat="35.764070430" lon="-106.259778220">
        <ele>1764.300</ele>
        <time>2022-04-25T21:38:13Z</time>
        <name>WPT.516</name>
      </trkpt>
      <trkpt lat="35.764115230" lon="-106.259787190">
        <ele>1763.200</ele>
        <time>2022-04-25T21:38:17Z</time>
        <name>WPT.517</name>
      </trkpt>
      <trkpt lat="35.764155570" lon="-106.259790220">
        <ele>1763.700</ele>
        <time>2022-04-25T21:38:21Z</time>
        <name>WPT.518</name>
      </trkpt>
      <trkpt lat="35.764193720" lon="-106.259807990">
        <ele>1764.100</ele>
        <time>2022-04-25T21:38:25Z</time>
        <name>WPT.519</name>
      </trkpt>
      <trkpt lat="35.764230760" lon="-106.259838480">
        <ele>1764.400</ele>
        <time>2022-04-25T21:38:30Z</time>
        <name>WPT.520</name>
      </trkpt>
      <trkpt lat="35.764257760" lon="-106.259868840">
        <ele>1764.800</ele>
        <time>2022-04-25T21:38:34Z</time>
        <name>WPT.521</name>
      </trkpt>
      <trkpt lat="35.764273950" lon="-106.259921500">
        <ele>1764.900</ele>
        <time>2022-04-25T21:38:38Z</time>
        <name>WPT.522</name>
      </trkpt>
      <trkpt lat="35.764297940" lon="-106.259958780">
        <ele>1763.600</ele>
        <time>2022-04-25T21:38:41Z</time>
        <name>WPT.523</name>
      </trkpt>
      <trkpt lat="35.764328830" lon="-106.259986960">
        <ele>1764.600</ele>
        <time>2022-04-25T21:38:46Z</time>
        <name>WPT.524</name>
      </trkpt>
      <trkpt lat="35.764349190" lon="-106.260028250">
        <ele>1764.100</ele>
        <time>2022-04-25T21:38:50Z</time>
        <name>WPT.525</name>
      </trkpt>
      <trkpt lat="35.764364830" lon="-106.260072640">
        <ele>1764.000</ele>
        <time>2022-04-25T21:38:53Z</time>
        <name>WPT.526</name>
      </trkpt>
      <trkpt lat="35.764402810" lon="-106.260096710">
        <ele>1766.600</ele>
        <time>2022-04-25T21:39:00Z</time>
        <name>WPT.527</name>
      </trkpt>
      <trkpt lat="35.764436420" lon="-106.260120530">
        <ele>1767.200</ele>
        <time>2022-04-25T21:39:04Z</time>
        <name>WPT.528</name>
      </trkpt>
      <trkpt lat="35.764464870" lon="-106.260155970">
        <ele>1766.400</ele>
        <time>2022-04-25T21:39:08Z</time>
        <name>WPT.529</name>
      </trkpt>
      <trkpt lat="35.764484670" lon="-106.260212860">
        <ele>1763.400</ele>
        <time>2022-04-25T21:39:12Z</time>
        <name>WPT.530</name>
      </trkpt>
      <trkpt lat="35.764495590" lon="-106.260255240">
        <ele>1762.000</ele>
        <time>2022-04-25T21:39:15Z</time>
        <name>WPT.531</name>
      </trkpt>
      <trkpt lat="35.764509860" lon="-106.260295880">
        <ele>1759.400</ele>
        <time>2022-04-25T21:39:19Z</time>
        <name>WPT.532</name>
      </trkpt>
      <trkpt lat="35.764526350" lon="-106.260347740">
        <ele>1758.100</ele>
        <time>2022-04-25T21:39:23Z</time>
        <name>WPT.533</name>
      </trkpt>
      <trkpt lat="35.764535530" lon="-106.260390850">
        <ele>1758.100</ele>
        <time>2022-04-25T21:39:26Z</time>
        <name>WPT.534</name>
      </trkpt>
      <trkpt lat="35.764561780" lon="-106.260424720">
        <ele>1758.100</ele>
        <time>2022-04-25T21:40:14Z</time>
        <name>WPT.535</name>
      </trkpt>
      <trkpt lat="35.764581640" lon="-106.260462810">
        <ele>1757.600</ele>
        <time>2022-04-25T21:40:18Z</time>
        <name>WPT.536</name>
      </trkpt>
      <trkpt lat="35.764613430" lon="-106.260497050">
        <ele>1757.700</ele>
        <time>2022-04-25T21:40:22Z</time>
        <name>WPT.537</name>
      </trkpt>
      <trkpt lat="35.764630340" lon="-106.260540180">
        <ele>1758.700</ele>
        <time>2022-04-25T21:40:26Z</time>
        <name>WPT.538</name>
      </trkpt>
      <trkpt lat="35.764642970" lon="-106.260583190">
        <ele>1758.100</ele>
        <time>2022-04-25T21:40:31Z</time>
        <name>WPT.539</name>
      </trkpt>
      <trkpt lat="35.764654410" lon="-106.260626670">
        <ele>1757.600</ele>
        <time>2022-04-25T21:40:35Z</time>
        <name>WPT.540</name>
      </trkpt>
      <trkpt lat="35.764674620" lon="-106.260669380">
        <ele>1759.600</ele>
        <time>2022-04-25T21:40:41Z</time>
        <name>WPT.541</name>
      </trkpt>
      <trkpt lat="35.764702150" lon="-106.260710800">
        <ele>1759.500</ele>
        <time>2022-04-25T21:40:47Z</time>
        <name>WPT.542</name>
      </trkpt>
      <trkpt lat="35.764719330" lon="-106.260763310">
        <ele>1759.600</ele>
        <time>2022-04-25T21:40:52Z</time>
        <name>WPT.543</name>
      </trkpt>
      <trkpt lat="35.764759820" lon="-106.260786960">
        <ele>1757.500</ele>
        <time>2022-04-25T21:40:56Z</time>
        <name>WPT.544</name>
      </trkpt>
      <trkpt lat="35.764794820" lon="-106.260814480">
        <ele>1757.200</ele>
        <time>2022-04-25T21:41:01Z</time>
        <name>WPT.545</name>
      </trkpt>
      <trkpt lat="35.764820060" lon="-106.260853060">
        <ele>1758.100</ele>
        <time>2022-04-25T21:41:06Z</time>
        <name>WPT.546</name>
      </trkpt>
      <trkpt lat="35.764841950" lon="-106.260894090">
        <ele>1756.500</ele>
        <time>2022-04-25T21:41:10Z</time>
        <name>WPT.547</name>
      </trkpt>
      <trkpt lat="35.764865970" lon="-106.260939880">
        <ele>1754.100</ele>
        <time>2022-04-25T21:41:15Z</time>
        <name>WPT.548</name>
      </trkpt>
      <trkpt lat="35.764893710" lon="-106.260973620">
        <ele>1753.600</ele>
        <time>2022-04-25T21:41:19Z</time>
        <name>WPT.549</name>
      </trkpt>
      <trkpt lat="35.764929310" lon="-106.260940330">
        <ele>1750.500</ele>
        <time>2022-04-25T21:41:24Z</time>
        <name>WPT.550</name>
      </trkpt>
      <trkpt lat="35.764949000" lon="-106.260899520">
        <ele>1751.300</ele>
        <time>2022-04-25T21:41:27Z</time>
        <name>WPT.551</name>
      </trkpt>
      <trkpt lat="35.764980530" lon="-106.260866140">
        <ele>1753.200</ele>
        <time>2022-04-25T21:41:50Z</time>
        <name>WPT.552</name>
      </trkpt>
      <trkpt lat="35.765000490" lon="-106.260815550">
        <ele>1753.800</ele>
        <time>2022-04-25T21:41:54Z</time>
        <name>WPT.553</name>
      </trkpt>
      <trkpt lat="35.765022000" lon="-106.260778070">
        <ele>1754.800</ele>
        <time>2022-04-25T21:41:57Z</time>
        <name>WPT.554</name>
      </trkpt>
      <trkpt lat="35.765041210" lon="-106.260740560">
        <ele>1755.800</ele>
        <time>2022-04-25T21:42:00Z</time>
        <name>WPT.555</name>
      </trkpt>
      <trkpt lat="35.765072560" lon="-106.260705920">
        <ele>1756.500</ele>
        <time>2022-04-25T21:42:04Z</time>
        <name>WPT.556</name>
      </trkpt>
      <trkpt lat="35.765114910" lon="-106.260683730">
        <ele>1758.300</ele>
        <time>2022-04-25T21:42:08Z</time>
        <name>WPT.557</name>
      </trkpt>
      <trkpt lat="35.765152230" lon="-106.260676770">
        <ele>1759.100</ele>
        <time>2022-04-25T21:42:12Z</time>
        <name>WPT.558</name>
      </trkpt>
      <trkpt lat="35.765192500" lon="-106.260670950">
        <ele>1759.400</ele>
        <time>2022-04-25T21:42:17Z</time>
        <name>WPT.559</name>
      </trkpt>
      <trkpt lat="35.765230490" lon="-106.260680990">
        <ele>1758.900</ele>
        <time>2022-04-25T21:42:21Z</time>
        <name>WPT.560</name>
      </trkpt>
      <trkpt lat="35.765263430" lon="-106.260706830">
        <ele>1760.300</ele>
        <time>2022-04-25T21:42:25Z</time>
        <name>WPT.561</name>
      </trkpt>
      <trkpt lat="35.765299480" lon="-106.260732860">
        <ele>1759.700</ele>
        <time>2022-04-25T21:42:30Z</time>
        <name>WPT.562</name>
      </trkpt>
      <trkpt lat="35.765339180" lon="-106.260713910">
        <ele>1761.000</ele>
        <time>2022-04-25T21:42:34Z</time>
        <name>WPT.563</name>
      </trkpt>
      <trkpt lat="35.765373800" lon="-106.260699880">
        <ele>1760.700</ele>
        <time>2022-04-25T21:42:37Z</time>
        <name>WPT.564</name>
      </trkpt>
      <trkpt lat="35.765414140" lon="-106.260694660">
        <ele>1760.600</ele>
        <time>2022-04-25T21:42:42Z</time>
        <name>WPT.565</name>
      </trkpt>
      <trkpt lat="35.765446360" lon="-106.260730940">
        <ele>1760.800</ele>
        <time>2022-04-25T21:42:46Z</time>
        <name>WPT.566</name>
      </trkpt>
      <trkpt lat="35.765464770" lon="-106.260780320">
        <ele>1761.100</ele>
        <time>2022-04-25T21:42:51Z</time>
        <name>WPT.567</name>
      </trkpt>
      <trkpt lat="35.765490850" lon="-106.260823200">
        <ele>1760.400</ele>
        <time>2022-04-25T21:42:55Z</time>
        <name>WPT.568</name>
      </trkpt>
      <trkpt lat="35.765511760" lon="-106.260863720">
        <ele>1760.200</ele>
        <time>2022-04-25T21:42:59Z</time>
        <name>WPT.569</name>
      </trkpt>
      <trkpt lat="35.765539960" lon="-106.260896980">
        <ele>1757.900</ele>
        <time>2022-04-25T21:43:03Z</time>
        <name>WPT.570</name>
      </trkpt>
      <trkpt lat="35.765571470" lon="-106.260933270">
        <ele>1755.800</ele>
        <time>2022-04-25T21:43:07Z</time>
        <name>WPT.571</name>
      </trkpt>
      <trkpt lat="35.765615570" lon="-106.260943160">
        <ele>1755.100</ele>
        <time>2022-04-25T21:43:11Z</time>
        <name>WPT.572</name>
      </trkpt>
      <trkpt lat="35.765639390" lon="-106.260988280">
        <ele>1754.500</ele>
        <time>2022-04-25T21:43:25Z</time>
        <name>WPT.573</name>
      </trkpt>
      <trkpt lat="35.765672060" lon="-106.261023160">
        <ele>1754.800</ele>
        <time>2022-04-25T21:43:29Z</time>
        <name>WPT.574</name>
      </trkpt>
      <trkpt lat="35.765695360" lon="-106.261071260">
        <ele>1754.500</ele>
        <time>2022-04-25T21:43:33Z</time>
        <name>WPT.575</name>
      </trkpt>
      <trkpt lat="35.765723100" lon="-106.261110700">
        <ele>1754.900</ele>
        <time>2022-04-25T21:43:54Z</time>
        <name>WPT.576</name>
      </trkpt>
      <trkpt lat="35.765744090" lon="-106.261157330">
        <ele>1755.700</ele>
        <time>2022-04-25T21:43:58Z</time>
        <name>WPT.577</name>
      </trkpt>
      <trkpt lat="35.765751870" lon="-106.261201500">
        <ele>1757.000</ele>
        <time>2022-04-25T21:44:05Z</time>
        <name>WPT.578</name>
      </trkpt>
      <trkpt lat="35.765786440" lon="-106.261214380">
        <ele>1755.400</ele>
        <time>2022-04-25T21:44:21Z</time>
        <name>WPT.579</name>
      </trkpt>
      <trkpt lat="35.765824000" lon="-106.261218450">
        <ele>1753.800</ele>
        <time>2022-04-25T21:44:25Z</time>
        <name>WPT.580</name>
      </trkpt>
      <trkpt lat="35.765848970" lon="-106.261256420">
        <ele>1754.700</ele>
        <time>2022-04-25T21:44:32Z</time>
        <name>WPT.581</name>
      </trkpt>
      <trkpt lat="35.765857530" lon="-106.261307420">
        <ele>1756.500</ele>
        <time>2022-04-25T21:44:37Z</time>
        <name>WPT.582</name>
      </trkpt>
      <trkpt lat="35.765857010" lon="-106.261352610">
        <ele>1760.200</ele>
        <time>2022-04-25T21:44:41Z</time>
        <name>WPT.583</name>
      </trkpt>
      <trkpt lat="35.765860990" lon="-106.261399760">
        <ele>1760.600</ele>
        <time>2022-04-25T21:44:46Z</time>
        <name>WPT.584</name>
      </trkpt>
      <trkpt lat="35.765896860" lon="-106.261420740">
        <ele>1759.400</ele>
        <time>2022-04-25T21:44:50Z</time>
        <name>WPT.585</name>
      </trkpt>
      <trkpt lat="35.765929050" lon="-106.261443140">
        <ele>1759.200</ele>
        <time>2022-04-25T21:44:54Z</time>
        <name>WPT.586</name>
      </trkpt>
      <trkpt lat="35.765968460" lon="-106.261463210">
        <ele>1758.600</ele>
        <time>2022-04-25T21:44:58Z</time>
        <name>WPT.587</name>
      </trkpt>
      <trkpt lat="35.765988970" lon="-106.261506050">
        <ele>1759.400</ele>
        <time>2022-04-25T21:45:02Z</time>
        <name>WPT.588</name>
      </trkpt>
      <trkpt lat="35.766015510" lon="-106.261546960">
        <ele>1764.100</ele>
        <time>2022-04-25T21:45:07Z</time>
        <name>WPT.589</name>
      </trkpt>
      <trkpt lat="35.766042660" lon="-106.261588630">
        <ele>1766.200</ele>
        <time>2022-04-25T21:45:12Z</time>
        <name>WPT.590</name>
      </trkpt>
      <trkpt lat="35.766069960" lon="-106.261620400">
        <ele>1766.500</ele>
        <time>2022-04-25T21:45:15Z</time>
        <name>WPT.591</name>
      </trkpt>
      <trkpt lat="35.766104700" lon="-106.261632290">
        <ele>1765.000</ele>
        <time>2022-04-25T21:45:18Z</time>
        <name>WPT.592</name>
      </trkpt>
      <trkpt lat="35.766138770" lon="-106.261649190">
        <ele>1764.500</ele>
        <time>2022-04-25T21:45:36Z</time>
        <name>WPT.593</name>
      </trkpt>
      <trkpt lat="35.766167920" lon="-106.261685770">
        <ele>1764.400</ele>
        <time>2022-04-25T21:45:42Z</time>
        <name>WPT.594</name>
      </trkpt>
      <trkpt lat="35.766209400" lon="-106.261709190">
        <ele>1762.100</ele>
        <time>2022-04-25T21:46:47Z</time>
        <name>WPT.595</name>
      </trkpt>
      <trkpt lat="35.766241660" lon="-106.261753570">
        <ele>1760.000</ele>
        <time>2022-04-25T21:46:51Z</time>
        <name>WPT.596</name>
      </trkpt>
      <trkpt lat="35.766262110" lon="-106.261791240">
        <ele>1759.600</ele>
        <time>2022-04-25T21:46:54Z</time>
        <name>WPT.597</name>
      </trkpt>
      <trkpt lat="35.766301090" lon="-106.261787260">
        <ele>1758.700</ele>
        <time>2022-04-25T21:46:57Z</time>
        <name>WPT.598</name>
      </trkpt>
      <trkpt lat="35.766342950" lon="-106.261813380">
        <ele>1758.300</ele>
        <time>2022-04-25T21:47:01Z</time>
        <name>WPT.599</name>
      </trkpt>
      <trkpt lat="35.766381830" lon="-106.261829780">
        <ele>1756.800</ele>
        <time>2022-04-25T21:47:05Z</time>
        <name>WPT.600</name>
      </trkpt>
      <trkpt lat="35.766419660" lon="-106.261820940">
        <ele>1756.700</ele>
        <time>2022-04-25T21:47:09Z</time>
        <name>WPT.601</name>
      </trkpt>
      <trkpt lat="35.766460160" lon="-106.261832320">
        <ele>1754.900</ele>
        <time>2022-04-25T21:47:14Z</time>
        <name>WPT.602</name>
      </trkpt>
      <trkpt lat="35.766502730" lon="-106.261853050">
        <ele>1750.900</ele>
        <time>2022-04-25T21:47:18Z</time>
        <name>WPT.603</name>
      </trkpt>
      <trkpt lat="35.766526750" lon="-106.261899060">
        <ele>1749.400</ele>
        <time>2022-04-25T21:47:22Z</time>
        <name>WPT.604</name>
      </trkpt>
      <trkpt lat="35.766551560" lon="-106.261939170">
        <ele>1749.500</ele>
        <time>2022-04-25T21:47:26Z</time>
        <name>WPT.605</name>
      </trkpt>
      <trkpt lat="35.766573810" lon="-106.261979460">
        <ele>1748.000</ele>
        <time>2022-04-25T21:47:39Z</time>
        <name>WPT.606</name>
      </trkpt>
      <trkpt lat="35.766586450" lon="-106.262023370">
        <ele>1749.400</ele>
        <time>2022-04-25T21:47:42Z</time>
        <name>WPT.607</name>
      </trkpt>
      <trkpt lat="35.766609570" lon="-106.262058000">
        <ele>1749.800</ele>
        <time>2022-04-25T21:47:48Z</time>
        <name>WPT.608</name>
      </trkpt>
      <trkpt lat="35.766642460" lon="-106.262096710">
        <ele>1749.400</ele>
        <time>2022-04-25T21:47:53Z</time>
        <name>WPT.609</name>
      </trkpt>
      <trkpt lat="35.766676330" lon="-106.262129370">
        <ele>1750.200</ele>
        <time>2022-04-25T21:47:57Z</time>
        <name>WPT.610</name>
      </trkpt>
      <trkpt lat="35.766719380" lon="-106.262145510">
        <ele>1750.600</ele>
        <time>2022-04-25T21:48:01Z</time>
        <name>WPT.611</name>
      </trkpt>
      <trkpt lat="35.766759180" lon="-106.262144910">
        <ele>1749.500</ele>
        <time>2022-04-25T21:48:04Z</time>
        <name>WPT.612</name>
      </trkpt>
      <trkpt lat="35.766790150" lon="-106.262180170">
        <ele>1750.600</ele>
        <time>2022-04-25T21:48:08Z</time>
        <name>WPT.613</name>
      </trkpt>
      <trkpt lat="35.766835060" lon="-106.262190050">
        <ele>1752.400</ele>
        <time>2022-04-25T21:48:16Z</time>
        <name>WPT.614</name>
      </trkpt>
      <trkpt lat="35.766871670" lon="-106.262188300">
        <ele>1752.300</ele>
        <time>2022-04-25T21:48:20Z</time>
        <name>WPT.615</name>
      </trkpt>
      <trkpt lat="35.766909390" lon="-106.262202970">
        <ele>1750.800</ele>
        <time>2022-04-25T21:48:24Z</time>
        <name>WPT.616</name>
      </trkpt>
      <trkpt lat="35.766945920" lon="-106.262210340">
        <ele>1751.100</ele>
        <time>2022-04-25T21:48:27Z</time>
        <name>WPT.617</name>
      </trkpt>
      <trkpt lat="35.766996930" lon="-106.262204230">
        <ele>1750.700</ele>
        <time>2022-04-25T21:48:31Z</time>
        <name>WPT.618</name>
      </trkpt>
      <trkpt lat="35.767031250" lon="-106.262226910">
        <ele>1751.400</ele>
        <time>2022-04-25T21:48:36Z</time>
        <name>WPT.619</name>
      </trkpt>
      <trkpt lat="35.767044730" lon="-106.262273550">
        <ele>1754.100</ele>
        <time>2022-04-25T21:48:40Z</time>
        <name>WPT.620</name>
      </trkpt>
      <trkpt lat="35.767083530" lon="-106.262285920">
        <ele>1754.000</ele>
        <time>2022-04-25T21:48:44Z</time>
        <name>WPT.621</name>
      </trkpt>
      <trkpt lat="35.767106680" lon="-106.262324390">
        <ele>1755.500</ele>
        <time>2022-04-25T21:48:48Z</time>
        <name>WPT.622</name>
      </trkpt>
      <trkpt lat="35.767153050" lon="-106.262326660">
        <ele>1755.500</ele>
        <time>2022-04-25T21:48:53Z</time>
        <name>WPT.623</name>
      </trkpt>
      <trkpt lat="35.767193000" lon="-106.262312300">
        <ele>1755.600</ele>
        <time>2022-04-25T21:48:57Z</time>
        <name>WPT.624</name>
      </trkpt>
      <trkpt lat="35.767232050" lon="-106.262341380">
        <ele>1754.800</ele>
        <time>2022-04-25T21:49:02Z</time>
        <name>WPT.625</name>
      </trkpt>
      <trkpt lat="35.767254640" lon="-106.262377430">
        <ele>1754.900</ele>
        <time>2022-04-25T21:49:06Z</time>
        <name>WPT.626</name>
      </trkpt>
      <trkpt lat="35.767290050" lon="-106.262355950">
        <ele>1753.700</ele>
        <time>2022-04-25T21:49:15Z</time>
        <name>WPT.627</name>
      </trkpt>
      <trkpt lat="35.767296380" lon="-106.262400810">
        <ele>1755.800</ele>
        <time>2022-04-25T21:49:20Z</time>
        <name>WPT.628</name>
      </trkpt>
      <trkpt lat="35.767333390" lon="-106.262416620">
        <ele>1757.300</ele>
        <time>2022-04-25T21:49:26Z</time>
        <name>WPT.629</name>
      </trkpt>
      <trkpt lat="35.767334470" lon="-106.262466040">
        <ele>1759.000</ele>
        <time>2022-04-25T21:49:30Z</time>
        <name>WPT.630</name>
      </trkpt>
      <trkpt lat="35.767354270" lon="-106.262512710">
        <ele>1758.500</ele>
        <time>2022-04-25T21:49:34Z</time>
        <name>WPT.631</name>
      </trkpt>
      <trkpt lat="35.767361690" lon="-106.262565550">
        <ele>1758.600</ele>
        <time>2022-04-25T21:49:38Z</time>
        <name>WPT.632</name>
      </trkpt>
      <trkpt lat="35.767356630" lon="-106.262610230">
        <ele>1760.200</ele>
        <time>2022-04-25T21:49:41Z</time>
        <name>WPT.633</name>
      </trkpt>
      <trkpt lat="35.767373170" lon="-106.262659150">
        <ele>1758.200</ele>
        <time>2022-04-25T21:49:46Z</time>
        <name>WPT.634</name>
      </trkpt>
      <trkpt lat="35.767398280" lon="-106.262700440">
        <ele>1757.600</ele>
        <time>2022-04-25T21:49:50Z</time>
        <name>WPT.635</name>
      </trkpt>
      <trkpt lat="35.767419810" lon="-106.262749960">
        <ele>1756.900</ele>
        <time>2022-04-25T21:49:54Z</time>
        <name>WPT.636</name>
      </trkpt>
      <trkpt lat="35.767448280" lon="-106.262785660">
        <ele>1755.700</ele>
        <time>2022-04-25T21:49:59Z</time>
        <name>WPT.637</name>
      </trkpt>
      <trkpt lat="35.767472330" lon="-106.262825590">
        <ele>1755.100</ele>
        <time>2022-04-25T21:50:03Z</time>
        <name>WPT.638</name>
      </trkpt>
      <trkpt lat="35.767486370" lon="-106.262871990">
        <ele>1756.200</ele>
        <time>2022-04-25T21:50:08Z</time>
        <name>WPT.639</name>
      </trkpt>
      <trkpt lat="35.767525520" lon="-106.262891330">
        <ele>1756.600</ele>
        <time>2022-04-25T21:50:13Z</time>
        <name>WPT.640</name>
      </trkpt>
      <trkpt lat="35.767562100" lon="-106.262915130">
        <ele>1755.800</ele>
        <time>2022-04-25T21:50:18Z</time>
        <name>WPT.641</name>
      </trkpt>
      <trkpt lat="35.767598080" lon="-106.262942900">
        <ele>1753.200</ele>
        <time>2022-04-25T21:50:22Z</time>
        <name>WPT.642</name>
      </trkpt>
      <trkpt lat="35.767636770" lon="-106.262944010">
        <ele>1750.900</ele>
        <time>2022-04-25T21:50:25Z</time>
        <name>WPT.643</name>
      </trkpt>
      <trkpt lat="35.767664530" lon="-106.262983200">
        <ele>1751.800</ele>
        <time>2022-04-25T21:50:29Z</time>
        <name>WPT.644</name>
      </trkpt>
      <trkpt lat="35.767674640" lon="-106.263030780">
        <ele>1756.900</ele>
        <time>2022-04-25T21:50:34Z</time>
        <name>WPT.645</name>
      </trkpt>
      <trkpt lat="35.767689890" lon="-106.263073880">
        <ele>1759.100</ele>
        <time>2022-04-25T21:50:38Z</time>
        <name>WPT.646</name>
      </trkpt>
      <trkpt lat="35.767722040" lon="-106.263111110">
        <ele>1757.800</ele>
        <time>2022-04-25T21:50:42Z</time>
        <name>WPT.647</name>
      </trkpt>
      <trkpt lat="35.767748710" lon="-106.263152720">
        <ele>1760.200</ele>
        <time>2022-04-25T21:50:46Z</time>
        <name>WPT.648</name>
      </trkpt>
      <trkpt lat="35.767770270" lon="-106.263199710">
        <ele>1761.100</ele>
        <time>2022-04-25T21:50:50Z</time>
        <name>WPT.649</name>
      </trkpt>
      <trkpt lat="35.767795350" lon="-106.263238330">
        <ele>1763.600</ele>
        <time>2022-04-25T21:50:55Z</time>
        <name>WPT.650</name>
      </trkpt>
      <trkpt lat="35.767821100" lon="-106.263279070">
        <ele>1761.800</ele>
        <time>2022-04-25T21:50:59Z</time>
        <name>WPT.651</name>
      </trkpt>
      <trkpt lat="35.767867460" lon="-106.263300300">
        <ele>1761.100</ele>
        <time>2022-04-25T21:51:03Z</time>
        <name>WPT.652</name>
      </trkpt>
      <trkpt lat="35.767889710" lon="-106.263343950">
        <ele>1760.600</ele>
        <time>2022-04-25T21:51:07Z</time>
        <name>WPT.653</name>
      </trkpt>
      <trkpt lat="35.767896370" lon="-106.263395160">
        <ele>1763.000</ele>
        <time>2022-04-25T21:51:27Z</time>
        <name>WPT.654</name>
      </trkpt>
      <trkpt lat="35.767923950" lon="-106.263425390">
        <ele>1764.100</ele>
        <time>2022-04-25T21:51:31Z</time>
        <name>WPT.655</name>
      </trkpt>
      <trkpt lat="35.767930600" lon="-106.263476390">
        <ele>1765.000</ele>
        <time>2022-04-25T21:51:37Z</time>
        <name>WPT.656</name>
      </trkpt>
      <trkpt lat="35.767944820" lon="-106.263528640">
        <ele>1765.000</ele>
        <time>2022-04-25T21:51:41Z</time>
        <name>WPT.657</name>
      </trkpt>
      <trkpt lat="35.767967180" lon="-106.263564740">
        <ele>1765.100</ele>
        <time>2022-04-25T21:51:45Z</time>
        <name>WPT.658</name>
      </trkpt>
      <trkpt lat="35.768001350" lon="-106.263585830">
        <ele>1765.100</ele>
        <time>2022-04-25T21:51:49Z</time>
        <name>WPT.659</name>
      </trkpt>
      <trkpt lat="35.768033030" lon="-106.263619050">
        <ele>1763.700</ele>
        <time>2022-04-25T21:51:54Z</time>
        <name>WPT.660</name>
      </trkpt>
      <trkpt lat="35.768066040" lon="-106.263643940">
        <ele>1764.400</ele>
        <time>2022-04-25T21:52:01Z</time>
        <name>WPT.661</name>
      </trkpt>
      <trkpt lat="35.768088480" lon="-106.263684610">
        <ele>1765.100</ele>
        <time>2022-04-25T21:52:06Z</time>
        <name>WPT.662</name>
      </trkpt>
      <trkpt lat="35.768103440" lon="-106.263733320">
        <ele>1768.100</ele>
        <time>2022-04-25T21:52:12Z</time>
        <name>WPT.663</name>
      </trkpt>
      <trkpt lat="35.768115590" lon="-106.263777990">
        <ele>1767.700</ele>
        <time>2022-04-25T21:52:30Z</time>
        <name>WPT.664</name>
      </trkpt>
      <trkpt lat="35.768107590" lon="-106.263831900">
        <ele>1775.400</ele>
        <time>2022-04-25T21:54:43Z</time>
        <name>WPT.665</name>
      </trkpt>
      <trkpt lat="35.768094210" lon="-106.263874220">
        <ele>1777.100</ele>
        <time>2022-04-25T21:54:46Z</time>
        <name>WPT.666</name>
      </trkpt>
      <trkpt lat="35.768084970" lon="-106.263925580">
        <ele>1777.100</ele>
        <time>2022-04-25T21:54:49Z</time>
        <name>WPT.667</name>
      </trkpt>
      <trkpt lat="35.768078170" lon="-106.263981690">
        <ele>1776.700</ele>
        <time>2022-04-25T21:54:53Z</time>
        <name>WPT.668</name>
      </trkpt>
      <trkpt lat="35.768096750" lon="-106.264026980">
        <ele>1774.900</ele>
        <time>2022-04-25T21:54:56Z</time>
        <name>WPT.669</name>
      </trkpt>
      <trkpt lat="35.768119190" lon="-106.264065800">
        <ele>1773.800</ele>
        <time>2022-04-25T21:54:59Z</time>
        <name>WPT.670</name>
      </trkpt>
      <trkpt lat="35.768132230" lon="-106.264114610">
        <ele>1775.500</ele>
        <time>2022-04-25T21:55:03Z</time>
        <name>WPT.671</name>
      </trkpt>
      <trkpt lat="35.768147730" lon="-106.264165470">
        <ele>1776.100</ele>
        <time>2022-04-25T21:55:07Z</time>
        <name>WPT.672</name>
      </trkpt>
      <trkpt lat="35.768172660" lon="-106.264205620">
        <ele>1775.800</ele>
        <time>2022-04-25T21:55:12Z</time>
        <name>WPT.673</name>
      </trkpt>
      <trkpt lat="35.768185990" lon="-106.264257550">
        <ele>1776.100</ele>
        <time>2022-04-25T21:55:16Z</time>
        <name>WPT.674</name>
      </trkpt>
      <trkpt lat="35.768199550" lon="-106.264304470">
        <ele>1776.400</ele>
        <time>2022-04-25T21:55:19Z</time>
        <name>WPT.675</name>
      </trkpt>
      <trkpt lat="35.768240720" lon="-106.264320460">
        <ele>1775.100</ele>
        <time>2022-04-25T21:55:24Z</time>
        <name>WPT.676</name>
      </trkpt>
      <trkpt lat="35.768271260" lon="-106.264352390">
        <ele>1778.200</ele>
        <time>2022-04-25T21:55:29Z</time>
        <name>WPT.677</name>
      </trkpt>
      <trkpt lat="35.768309390" lon="-106.264361400">
        <ele>1776.900</ele>
        <time>2022-04-25T21:55:32Z</time>
        <name>WPT.678</name>
      </trkpt>
      <trkpt lat="35.768354330" lon="-106.264368530">
        <ele>1773.900</ele>
        <time>2022-04-25T21:55:36Z</time>
        <name>WPT.679</name>
      </trkpt>
      <trkpt lat="35.768390170" lon="-106.264403850">
        <ele>1773.800</ele>
        <time>2022-04-25T21:55:40Z</time>
        <name>WPT.680</name>
      </trkpt>
      <trkpt lat="35.768423640" lon="-106.264431270">
        <ele>1773.000</ele>
        <time>2022-04-25T21:55:44Z</time>
        <name>WPT.681</name>
      </trkpt>
      <trkpt lat="35.768448360" lon="-106.264473570">
        <ele>1774.500</ele>
        <time>2022-04-25T21:55:49Z</time>
        <name>WPT.682</name>
      </trkpt>
      <trkpt lat="35.768475200" lon="-106.264513900">
        <ele>1775.400</ele>
        <time>2022-04-25T21:55:53Z</time>
        <name>WPT.683</name>
      </trkpt>
      <trkpt lat="35.768490610" lon="-106.264565440">
        <ele>1779.500</ele>
        <time>2022-04-25T21:55:57Z</time>
        <name>WPT.684</name>
      </trkpt>
      <trkpt lat="35.768521440" lon="-106.264597910">
        <ele>1780.900</ele>
        <time>2022-04-25T21:56:01Z</time>
        <name>WPT.685</name>
      </trkpt>
      <trkpt lat="35.768557100" lon="-106.264625090">
        <ele>1780.700</ele>
        <time>2022-04-25T21:56:05Z</time>
        <name>WPT.686</name>
      </trkpt>
      <trkpt lat="35.768600560" lon="-106.264614530">
        <ele>1781.500</ele>
        <time>2022-04-25T21:56:09Z</time>
        <name>WPT.687</name>
      </trkpt>
      <trkpt lat="35.768639010" lon="-106.264623560">
        <ele>1779.700</ele>
        <time>2022-04-25T21:56:12Z</time>
        <name>WPT.688</name>
      </trkpt>
      <trkpt lat="35.768676250" lon="-106.264607200">
        <ele>1778.400</ele>
        <time>2022-04-25T21:56:15Z</time>
        <name>WPT.689</name>
      </trkpt>
      <trkpt lat="35.768720570" lon="-106.264585330">
        <ele>1776.100</ele>
        <time>2022-04-25T21:56:18Z</time>
        <name>WPT.690</name>
      </trkpt>
      <trkpt lat="35.768767430" lon="-106.264587450">
        <ele>1775.900</ele>
        <time>2022-04-25T21:56:22Z</time>
        <name>WPT.691</name>
      </trkpt>
      <trkpt lat="35.768809540" lon="-106.264597930">
        <ele>1775.000</ele>
        <time>2022-04-25T21:56:26Z</time>
        <name>WPT.692</name>
      </trkpt>
      <trkpt lat="35.768851520" lon="-106.264617040">
        <ele>1775.400</ele>
        <time>2022-04-25T21:56:32Z</time>
        <name>WPT.693</name>
      </trkpt>
      <trkpt lat="35.768887150" lon="-106.264626900">
        <ele>1775.100</ele>
        <time>2022-04-25T21:56:36Z</time>
        <name>WPT.694</name>
      </trkpt>
      <trkpt lat="35.768922800" lon="-106.264638830">
        <ele>1776.600</ele>
        <time>2022-04-25T21:56:41Z</time>
        <name>WPT.695</name>
      </trkpt>
      <trkpt lat="35.768955310" lon="-106.264671430">
        <ele>1777.500</ele>
        <time>2022-04-25T21:56:47Z</time>
        <name>WPT.696</name>
      </trkpt>
      <trkpt lat="35.768990110" lon="-106.264690460">
        <ele>1779.800</ele>
        <time>2022-04-25T21:57:03Z</time>
        <name>WPT.697</name>
      </trkpt>
      <trkpt lat="35.769031080" lon="-106.264703010">
        <ele>1779.200</ele>
        <time>2022-04-25T21:57:08Z</time>
        <name>WPT.698</name>
      </trkpt>
      <trkpt lat="35.769072730" lon="-106.264709340">
        <ele>1778.600</ele>
        <time>2022-04-25T21:57:54Z</time>
        <name>WPT.699</name>
      </trkpt>
      <trkpt lat="35.769110860" lon="-106.264728470">
        <ele>1778.300</ele>
        <time>2022-04-25T21:57:59Z</time>
        <name>WPT.700</name>
      </trkpt>
      <trkpt lat="35.769132280" lon="-106.264765560">
        <ele>1781.300</ele>
        <time>2022-04-25T21:58:03Z</time>
        <name>WPT.701</name>
      </trkpt>
      <trkpt lat="35.769169080" lon="-106.264799370">
        <ele>1779.400</ele>
        <time>2022-04-25T21:58:07Z</time>
        <name>WPT.702</name>
      </trkpt>
      <trkpt lat="35.769207850" lon="-106.264804680">
        <ele>1779.100</ele>
        <time>2022-04-25T21:58:10Z</time>
        <name>WPT.703</name>
      </trkpt>
      <trkpt lat="35.769244710" lon="-106.264808820">
        <ele>1779.100</ele>
        <time>2022-04-25T21:58:13Z</time>
        <name>WPT.704</name>
      </trkpt>
      <trkpt lat="35.769278280" lon="-106.264840760">
        <ele>1779.100</ele>
        <time>2022-04-25T21:58:17Z</time>
        <name>WPT.705</name>
      </trkpt>
      <trkpt lat="35.769305940" lon="-106.264870060">
        <ele>1780.200</ele>
        <time>2022-04-25T21:58:20Z</time>
        <name>WPT.706</name>
      </trkpt>
      <trkpt lat="35.769345660" lon="-106.264891770">
        <ele>1780.500</ele>
        <time>2022-04-25T21:58:24Z</time>
        <name>WPT.707</name>
      </trkpt>
      <trkpt lat="35.769379220" lon="-106.264924110">
        <ele>1780.000</ele>
        <time>2022-04-25T21:58:28Z</time>
        <name>WPT.708</name>
      </trkpt>
      <trkpt lat="35.769419230" lon="-106.264928580">
        <ele>1777.400</ele>
        <time>2022-04-25T21:58:31Z</time>
        <name>WPT.709</name>
      </trkpt>
      <trkpt lat="35.769453820" lon="-106.264946970">
        <ele>1777.400</ele>
        <time>2022-04-25T21:58:34Z</time>
        <name>WPT.710</name>
      </trkpt>
      <trkpt lat="35.769484360" lon="-106.264989610">
        <ele>1777.300</ele>
        <time>2022-04-25T21:58:38Z</time>
        <name>WPT.711</name>
      </trkpt>
      <trkpt lat="35.769511320" lon="-106.265022190">
        <ele>1776.800</ele>
        <time>2022-04-25T21:58:41Z</time>
        <name>WPT.712</name>
      </trkpt>
      <trkpt lat="35.769532290" lon="-106.265062300">
        <ele>1776.100</ele>
        <time>2022-04-25T21:58:45Z</time>
        <name>WPT.713</name>
      </trkpt>
      <trkpt lat="35.769552780" lon="-106.265110540">
        <ele>1777.900</ele>
        <time>2022-04-25T21:58:55Z</time>
        <name>WPT.714</name>
      </trkpt>
      <trkpt lat="35.769580640" lon="-106.265153940">
        <ele>1778.700</ele>
        <time>2022-04-25T21:58:59Z</time>
        <name>WPT.715</name>
      </trkpt>
      <trkpt lat="35.769604190" lon="-106.265193020">
        <ele>1781.300</ele>
        <time>2022-04-25T21:59:07Z</time>
        <name>WPT.716</name>
      </trkpt>
      <trkpt lat="35.769623960" lon="-106.265236280">
        <ele>1782.700</ele>
        <time>2022-04-25T21:59:12Z</time>
        <name>WPT.717</name>
      </trkpt>
      <trkpt lat="35.769650150" lon="-106.265269550">
        <ele>1781.000</ele>
        <time>2022-04-25T21:59:16Z</time>
        <name>WPT.718</name>
      </trkpt>
      <trkpt lat="35.769660780" lon="-106.265319220">
        <ele>1781.600</ele>
        <time>2022-04-25T21:59:20Z</time>
        <name>WPT.719</name>
      </trkpt>
      <trkpt lat="35.769670220" lon="-106.265372890">
        <ele>1783.900</ele>
        <time>2022-04-25T21:59:24Z</time>
        <name>WPT.720</name>
      </trkpt>
      <trkpt lat="35.769695020" lon="-106.265416040">
        <ele>1780.800</ele>
        <time>2022-04-25T21:59:29Z</time>
        <name>WPT.721</name>
      </trkpt>
      <trkpt lat="35.769704000" lon="-106.265468050">
        <ele>1781.900</ele>
        <time>2022-04-25T21:59:34Z</time>
        <name>WPT.722</name>
      </trkpt>
      <trkpt lat="35.769713920" lon="-106.265515880">
        <ele>1780.500</ele>
        <time>2022-04-25T21:59:38Z</time>
        <name>WPT.723</name>
      </trkpt>
      <trkpt lat="35.769723170" lon="-106.265559010">
        <ele>1781.200</ele>
        <time>2022-04-25T21:59:41Z</time>
        <name>WPT.724</name>
      </trkpt>
      <trkpt lat="35.769735860" lon="-106.265604050">
        <ele>1781.700</ele>
        <time>2022-04-25T21:59:45Z</time>
        <name>WPT.725</name>
      </trkpt>
      <trkpt lat="35.769753020" lon="-106.265648660">
        <ele>1781.900</ele>
        <time>2022-04-25T21:59:50Z</time>
        <name>WPT.726</name>
      </trkpt>
      <trkpt lat="35.769763840" lon="-106.265701480">
        <ele>1782.800</ele>
        <time>2022-04-25T21:59:56Z</time>
        <name>WPT.727</name>
      </trkpt>
      <trkpt lat="35.769779620" lon="-106.265742480">
        <ele>1784.700</ele>
        <time>2022-04-25T22:00:00Z</time>
        <name>WPT.728</name>
      </trkpt>
      <trkpt lat="35.769793380" lon="-106.265786560">
        <ele>1784.300</ele>
        <time>2022-04-25T22:00:04Z</time>
        <name>WPT.729</name>
      </trkpt>
      <trkpt lat="35.769816360" lon="-106.265821130">
        <ele>1782.900</ele>
        <time>2022-04-25T22:00:09Z</time>
        <name>WPT.730</name>
      </trkpt>
      <trkpt lat="35.769827170" lon="-106.265863940">
        <ele>1781.700</ele>
        <time>2022-04-25T22:00:13Z</time>
        <name>WPT.731</name>
      </trkpt>
      <trkpt lat="35.769847010" lon="-106.265904340">
        <ele>1780.800</ele>
        <time>2022-04-25T22:00:18Z</time>
        <name>WPT.732</name>
      </trkpt>
      <trkpt lat="35.769872390" lon="-106.265943560">
        <ele>1781.000</ele>
        <time>2022-04-25T22:00:24Z</time>
        <name>WPT.733</name>
      </trkpt>
      <trkpt lat="35.769892030" lon="-106.265985030">
        <ele>1781.100</ele>
        <time>2022-04-25T22:00:29Z</time>
        <name>WPT.734</name>
      </trkpt>
      <trkpt lat="35.769917710" lon="-106.266021290">
        <ele>1781.500</ele>
        <time>2022-04-25T22:00:35Z</time>
        <name>WPT.735</name>
      </trkpt>
      <trkpt lat="35.769948040" lon="-106.266050360">
        <ele>1782.300</ele>
        <time>2022-04-25T22:00:49Z</time>
        <name>WPT.736</name>
      </trkpt>
      <trkpt lat="35.769983150" lon="-106.266074190">
        <ele>1783.300</ele>
        <time>2022-04-25T22:00:54Z</time>
        <name>WPT.737</name>
      </trkpt>
      <trkpt lat="35.770021350" lon="-106.266093710">
        <ele>1784.100</ele>
        <time>2022-04-25T22:01:00Z</time>
        <name>WPT.738</name>
      </trkpt>
      <trkpt lat="35.770053950" lon="-106.266114500">
        <ele>1787.000</ele>
        <time>2022-04-25T22:01:05Z</time>
        <name>WPT.739</name>
      </trkpt>
      <trkpt lat="35.770077300" lon="-106.266153510">
        <ele>1786.400</ele>
        <time>2022-04-25T22:01:09Z</time>
        <name>WPT.740</name>
      </trkpt>
      <trkpt lat="35.770116540" lon="-106.266158240">
        <ele>1788.100</ele>
        <time>2022-04-25T22:01:14Z</time>
        <name>WPT.741</name>
      </trkpt>
      <trkpt lat="35.770152550" lon="-106.266174580">
        <ele>1789.500</ele>
        <time>2022-04-25T22:01:21Z</time>
        <name>WPT.742</name>
      </trkpt>
      <trkpt lat="35.770180210" lon="-106.266210830">
        <ele>1790.900</ele>
        <time>2022-04-25T22:01:27Z</time>
        <name>WPT.743</name>
      </trkpt>
      <trkpt lat="35.770211160" lon="-106.266236510">
        <ele>1790.500</ele>
        <time>2022-04-25T22:01:32Z</time>
        <name>WPT.744</name>
      </trkpt>
      <trkpt lat="35.770236420" lon="-106.266275220">
        <ele>1790.400</ele>
        <time>2022-04-25T22:01:37Z</time>
        <name>WPT.745</name>
      </trkpt>
      <trkpt lat="35.770267270" lon="-106.266300750">
        <ele>1791.900</ele>
        <time>2022-04-25T22:01:43Z</time>
        <name>WPT.746</name>
      </trkpt>
      <trkpt lat="35.770289440" lon="-106.266340120">
        <ele>1792.200</ele>
        <time>2022-04-25T22:01:49Z</time>
        <name>WPT.747</name>
      </trkpt>
      <trkpt lat="35.770322270" lon="-106.266375660">
        <ele>1793.000</ele>
        <time>2022-04-25T22:01:54Z</time>
        <name>WPT.748</name>
      </trkpt>
      <trkpt lat="35.770359140" lon="-106.266396390">
        <ele>1793.500</ele>
        <time>2022-04-25T22:01:59Z</time>
        <name>WPT.749</name>
      </trkpt>
      <trkpt lat="35.770388380" lon="-106.266424620">
        <ele>1790.700</ele>
        <time>2022-04-25T22:02:04Z</time>
        <name>WPT.750</name>
      </trkpt>
      <trkpt lat="35.770428920" lon="-106.266438730">
        <ele>1790.000</ele>
        <time>2022-04-25T22:02:09Z</time>
        <name>WPT.751</name>
      </trkpt>
      <trkpt lat="35.770461370" lon="-106.266464060">
        <ele>1791.900</ele>
        <time>2022-04-25T22:02:15Z</time>
        <name>WPT.752</name>
      </trkpt>
      <trkpt lat="35.770474570" lon="-106.266514000">
        <ele>1793.800</ele>
        <time>2022-04-25T22:02:21Z</time>
        <name>WPT.753</name>
      </trkpt>
      <trkpt lat="35.770498040" lon="-106.266559260">
        <ele>1796.600</ele>
        <time>2022-04-25T22:03:26Z</time>
        <name>WPT.754</name>
      </trkpt>
      <trkpt lat="35.770523670" lon="-106.266604480">
        <ele>1797.800</ele>
        <time>2022-04-25T22:03:31Z</time>
        <name>WPT.755</name>
      </trkpt>
      <trkpt lat="35.770552260" lon="-106.266648700">
        <ele>1796.900</ele>
        <time>2022-04-25T22:03:36Z</time>
        <name>WPT.756</name>
      </trkpt>
      <trkpt lat="35.770581810" lon="-106.266674360">
        <ele>1798.400</ele>
        <time>2022-04-25T22:03:40Z</time>
        <name>WPT.757</name>
      </trkpt>
      <trkpt lat="35.770620840" lon="-106.266686180">
        <ele>1799.600</ele>
        <time>2022-04-25T22:03:44Z</time>
        <name>WPT.758</name>
      </trkpt>
      <trkpt lat="35.770665810" lon="-106.266662860">
        <ele>1800.600</ele>
        <time>2022-04-25T22:03:48Z</time>
        <name>WPT.759</name>
      </trkpt>
      <trkpt lat="35.770709020" lon="-106.266654510">
        <ele>1801.900</ele>
        <time>2022-04-25T22:03:52Z</time>
        <name>WPT.760</name>
      </trkpt>
      <trkpt lat="35.770746540" lon="-106.266667140">
        <ele>1804.000</ele>
        <time>2022-04-25T22:03:56Z</time>
        <name>WPT.761</name>
      </trkpt>
      <trkpt lat="35.770785270" lon="-106.266689470">
        <ele>1805.100</ele>
        <time>2022-04-25T22:04:00Z</time>
        <name>WPT.762</name>
      </trkpt>
      <trkpt lat="35.770818670" lon="-106.266718680">
        <ele>1805.000</ele>
        <time>2022-04-25T22:04:04Z</time>
        <name>WPT.763</name>
      </trkpt>
      <trkpt lat="35.770850860" lon="-106.266756960">
        <ele>1804.900</ele>
        <time>2022-04-25T22:04:09Z</time>
        <name>WPT.764</name>
      </trkpt>
      <trkpt lat="35.770891120" lon="-106.266777850">
        <ele>1803.700</ele>
        <time>2022-04-25T22:04:13Z</time>
        <name>WPT.765</name>
      </trkpt>
      <trkpt lat="35.770935060" lon="-106.266778360">
        <ele>1801.900</ele>
        <time>2022-04-25T22:04:17Z</time>
        <name>WPT.766</name>
      </trkpt>
      <trkpt lat="35.770978400" lon="-106.266784520">
        <ele>1803.000</ele>
        <time>2022-04-25T22:04:22Z</time>
        <name>WPT.767</name>
      </trkpt>
      <trkpt lat="35.771010920" lon="-106.266807340">
        <ele>1804.100</ele>
        <time>2022-04-25T22:04:26Z</time>
        <name>WPT.768</name>
      </trkpt>
      <trkpt lat="35.771046410" lon="-106.266835310">
        <ele>1802.900</ele>
        <time>2022-04-25T22:04:31Z</time>
        <name>WPT.769</name>
      </trkpt>
      <trkpt lat="35.771083880" lon="-106.266841180">
        <ele>1803.200</ele>
        <time>2022-04-25T22:04:35Z</time>
        <name>WPT.770</name>
      </trkpt>
      <trkpt lat="35.771125470" lon="-106.266847530">
        <ele>1803.800</ele>
        <time>2022-04-25T22:04:39Z</time>
        <name>WPT.771</name>
      </trkpt>
      <trkpt lat="35.771165800" lon="-106.266850170">
        <ele>1805.200</ele>
        <time>2022-04-25T22:04:43Z</time>
        <name>WPT.772</name>
      </trkpt>
      <trkpt lat="35.771202980" lon="-106.266863900">
        <ele>1803.900</ele>
        <time>2022-04-25T22:04:47Z</time>
        <name>WPT.773</name>
      </trkpt>
      <trkpt lat="35.771241790" lon="-106.266868620">
        <ele>1805.500</ele>
        <time>2022-04-25T22:04:51Z</time>
        <name>WPT.774</name>
      </trkpt>
      <trkpt lat="35.771282270" lon="-106.266871340">
        <ele>1806.800</ele>
        <time>2022-04-25T22:04:55Z</time>
        <name>WPT.775</name>
      </trkpt>
      <trkpt lat="35.771318120" lon="-106.266883570">
        <ele>1807.500</ele>
        <time>2022-04-25T22:04:59Z</time>
        <name>WPT.776</name>
      </trkpt>
      <trkpt lat="35.771352000" lon="-106.266916280">
        <ele>1807.800</ele>
        <time>2022-04-25T22:05:04Z</time>
        <name>WPT.777</name>
      </trkpt>
      <trkpt lat="35.771381460" lon="-106.266947820">
        <ele>1807.800</ele>
        <time>2022-04-25T22:05:08Z</time>
        <name>WPT.778</name>
      </trkpt>
      <trkpt lat="35.771423910" lon="-106.266956290">
        <ele>1807.800</ele>
        <time>2022-04-25T22:05:13Z</time>
        <name>WPT.779</name>
      </trkpt>
      <trkpt lat="35.771466890" lon="-106.266972390">
        <ele>1810.700</ele>
        <time>2022-04-25T22:05:18Z</time>
        <name>WPT.780</name>
      </trkpt>
      <trkpt lat="35.771503470" lon="-106.266984190">
        <ele>1812.100</ele>
        <time>2022-04-25T22:05:22Z</time>
        <name>WPT.781</name>
      </trkpt>
      <trkpt lat="35.771542850" lon="-106.266990640">
        <ele>1810.100</ele>
        <time>2022-04-25T22:05:26Z</time>
        <name>WPT.782</name>
      </trkpt>
      <trkpt lat="35.771584720" lon="-106.266965070">
        <ele>1808.700</ele>
        <time>2022-04-25T22:05:30Z</time>
        <name>WPT.783</name>
      </trkpt>
      <trkpt lat="35.771619850" lon="-106.266946780">
        <ele>1808.900</ele>
        <time>2022-04-25T22:05:34Z</time>
        <name>WPT.784</name>
      </trkpt>
      <trkpt lat="35.771657680" lon="-106.266930760">
        <ele>1809.500</ele>
        <time>2022-04-25T22:05:38Z</time>
        <name>WPT.785</name>
      </trkpt>
      <trkpt lat="35.771693910" lon="-106.266934100">
        <ele>1810.400</ele>
        <time>2022-04-25T22:05:42Z</time>
        <name>WPT.786</name>
      </trkpt>
      <trkpt lat="35.771739360" lon="-106.266944370">
        <ele>1809.400</ele>
        <time>2022-04-25T22:05:47Z</time>
        <name>WPT.787</name>
      </trkpt>
      <trkpt lat="35.771776810" lon="-106.266944930">
        <ele>1810.900</ele>
        <time>2022-04-25T22:05:51Z</time>
        <name>WPT.788</name>
      </trkpt>
      <trkpt lat="35.771815880" lon="-106.266941000">
        <ele>1810.700</ele>
        <time>2022-04-25T22:05:55Z</time>
        <name>WPT.789</name>
      </trkpt>
      <trkpt lat="35.771852110" lon="-106.266933440">
        <ele>1809.600</ele>
        <time>2022-04-25T22:05:59Z</time>
        <name>WPT.790</name>
      </trkpt>
      <trkpt lat="35.771894350" lon="-106.266922010">
        <ele>1809.200</ele>
        <time>2022-04-25T22:06:03Z</time>
        <name>WPT.791</name>
      </trkpt>
      <trkpt lat="35.771937710" lon="-106.266920140">
        <ele>1809.000</ele>
        <time>2022-04-25T22:06:08Z</time>
        <name>WPT.792</name>
      </trkpt>
      <trkpt lat="35.771981610" lon="-106.266926520">
        <ele>1808.500</ele>
        <time>2022-04-25T22:06:13Z</time>
        <name>WPT.793</name>
      </trkpt>
      <trkpt lat="35.772019100" lon="-106.266934860">
        <ele>1809.800</ele>
        <time>2022-04-25T22:06:18Z</time>
        <name>WPT.794</name>
      </trkpt>
      <trkpt lat="35.772057410" lon="-106.266955840">
        <ele>1812.800</ele>
        <time>2022-04-25T22:06:42Z</time>
        <name>WPT.795</name>
      </trkpt>
      <trkpt lat="35.772091760" lon="-106.266974090">
        <ele>1814.400</ele>
        <time>2022-04-25T22:06:46Z</time>
        <name>WPT.796</name>
      </trkpt>
      <trkpt lat="35.772131870" lon="-106.266973930">
        <ele>1813.100</ele>
        <time>2022-04-25T22:06:50Z</time>
        <name>WPT.797</name>
      </trkpt>
      <trkpt lat="35.772171770" lon="-106.266966800">
        <ele>1812.600</ele>
        <time>2022-04-25T22:06:54Z</time>
        <name>WPT.798</name>
      </trkpt>
      <trkpt lat="35.772207640" lon="-106.266953900">
        <ele>1811.700</ele>
        <time>2022-04-25T22:06:58Z</time>
        <name>WPT.799</name>
      </trkpt>
      <trkpt lat="35.772241430" lon="-106.266971500">
        <ele>1811.100</ele>
        <time>2022-04-25T22:07:02Z</time>
        <name>WPT.800</name>
      </trkpt>
      <trkpt lat="35.772276960" lon="-106.266995490">
        <ele>1812.000</ele>
        <time>2022-04-25T22:07:06Z</time>
        <name>WPT.801</name>
      </trkpt>
      <trkpt lat="35.772314190" lon="-106.267011230">
        <ele>1812.900</ele>
        <time>2022-04-25T22:07:27Z</time>
        <name>WPT.802</name>
      </trkpt>
      <trkpt lat="35.772346240" lon="-106.267040700">
        <ele>1813.700</ele>
        <time>2022-04-25T22:07:32Z</time>
        <name>WPT.803</name>
      </trkpt>
      <trkpt lat="35.772381640" lon="-106.267061430">
        <ele>1813.900</ele>
        <time>2022-04-25T22:07:38Z</time>
        <name>WPT.804</name>
      </trkpt>
      <trkpt lat="35.772409720" lon="-106.267089190">
        <ele>1815.400</ele>
        <time>2022-04-25T22:07:43Z</time>
        <name>WPT.805</name>
      </trkpt>
      <trkpt lat="35.772439720" lon="-106.267116890">
        <ele>1816.100</ele>
        <time>2022-04-25T22:07:48Z</time>
        <name>WPT.806</name>
      </trkpt>
      <trkpt lat="35.772459740" lon="-106.267161750">
        <ele>1816.000</ele>
        <time>2022-04-25T22:07:54Z</time>
        <name>WPT.807</name>
      </trkpt>
      <trkpt lat="35.772489160" lon="-106.267202500">
        <ele>1816.500</ele>
        <time>2022-04-25T22:07:59Z</time>
        <name>WPT.808</name>
      </trkpt>
      <trkpt lat="35.772521670" lon="-106.267230670">
        <ele>1816.000</ele>
        <time>2022-04-25T22:08:03Z</time>
        <name>WPT.809</name>
      </trkpt>
      <trkpt lat="35.772560780" lon="-106.267248420">
        <ele>1817.100</ele>
        <time>2022-04-25T22:08:08Z</time>
        <name>WPT.810</name>
      </trkpt>
      <trkpt lat="35.772597140" lon="-106.267269970">
        <ele>1817.500</ele>
        <time>2022-04-25T22:08:14Z</time>
        <name>WPT.811</name>
      </trkpt>
      <trkpt lat="35.772637620" lon="-106.267286940">
        <ele>1817.200</ele>
        <time>2022-04-25T22:08:19Z</time>
        <name>WPT.812</name>
      </trkpt>
      <trkpt lat="35.772684550" lon="-106.267289310">
        <ele>1818.100</ele>
        <time>2022-04-25T22:08:24Z</time>
        <name>WPT.813</name>
      </trkpt>
      <trkpt lat="35.772724490" lon="-106.267289750">
        <ele>1816.500</ele>
        <time>2022-04-25T22:08:28Z</time>
        <name>WPT.814</name>
      </trkpt>
      <trkpt lat="35.772764640" lon="-106.267287520">
        <ele>1817.100</ele>
        <time>2022-04-25T22:08:33Z</time>
        <name>WPT.815</name>
      </trkpt>
      <trkpt lat="35.772804120" lon="-106.267291520">
        <ele>1818.000</ele>
        <time>2022-04-25T22:08:38Z</time>
        <name>WPT.816</name>
      </trkpt>
      <trkpt lat="35.772841180" lon="-106.267302040">
        <ele>1817.100</ele>
        <time>2022-04-25T22:08:41Z</time>
        <name>WPT.817</name>
      </trkpt>
      <trkpt lat="35.772879620" lon="-106.267323500">
        <ele>1814.900</ele>
        <time>2022-04-25T22:08:44Z</time>
        <name>WPT.818</name>
      </trkpt>
      <trkpt lat="35.772918800" lon="-106.267336230">
        <ele>1817.700</ele>
        <time>2022-04-25T22:08:49Z</time>
        <name>WPT.819</name>
      </trkpt>
      <trkpt lat="35.772956400" lon="-106.267348570">
        <ele>1818.500</ele>
        <time>2022-04-25T22:08:53Z</time>
        <name>WPT.820</name>
      </trkpt>
      <trkpt lat="35.773001280" lon="-106.267349560">
        <ele>1817.200</ele>
        <time>2022-04-25T22:08:58Z</time>
        <name>WPT.821</name>
      </trkpt>
      <trkpt lat="35.773038310" lon="-106.267350450">
        <ele>1816.800</ele>
        <time>2022-04-25T22:09:03Z</time>
        <name>WPT.822</name>
      </trkpt>
      <trkpt lat="35.773079580" lon="-106.267352350">
        <ele>1816.100</ele>
        <time>2022-04-25T22:09:07Z</time>
        <name>WPT.823</name>
      </trkpt>
      <trkpt lat="35.773118860" lon="-106.267361020">
        <ele>1816.600</ele>
        <time>2022-04-25T22:09:11Z</time>
        <name>WPT.824</name>
      </trkpt>
      <trkpt lat="35.773155180" lon="-106.267380750">
        <ele>1817.500</ele>
        <time>2022-04-25T22:09:15Z</time>
        <name>WPT.825</name>
      </trkpt>
      <trkpt lat="35.773194360" lon="-106.267386860">
        <ele>1817.400</ele>
        <time>2022-04-25T22:09:19Z</time>
        <name>WPT.826</name>
      </trkpt>
      <trkpt lat="35.773231700" lon="-106.267392950">
        <ele>1816.300</ele>
        <time>2022-04-25T22:09:23Z</time>
        <name>WPT.827</name>
      </trkpt>
      <trkpt lat="35.773274060" lon="-106.267406590">
        <ele>1816.200</ele>
        <time>2022-04-25T22:09:28Z</time>
        <name>WPT.828</name>
      </trkpt>
      <trkpt lat="35.773317690" lon="-106.267414090">
        <ele>1816.300</ele>
        <time>2022-04-25T22:09:33Z</time>
        <name>WPT.829</name>
      </trkpt>
      <trkpt lat="35.773353840" lon="-106.267444310">
        <ele>1815.300</ele>
        <time>2022-04-25T22:09:37Z</time>
        <name>WPT.830</name>
      </trkpt>
      <trkpt lat="35.773383260" lon="-106.267483500">
        <ele>1814.400</ele>
        <time>2022-04-25T22:09:42Z</time>
        <name>WPT.831</name>
      </trkpt>
      <trkpt lat="35.773419790" lon="-106.267518480">
        <ele>1813.900</ele>
        <time>2022-04-25T22:09:47Z</time>
        <name>WPT.832</name>
      </trkpt>
      <trkpt lat="35.773452800" lon="-106.267554290">
        <ele>1815.200</ele>
        <time>2022-04-25T22:09:51Z</time>
        <name>WPT.833</name>
      </trkpt>
      <trkpt lat="35.773492100" lon="-106.267575880">
        <ele>1815.000</ele>
        <time>2022-04-25T22:09:55Z</time>
        <name>WPT.834</name>
      </trkpt>
      <trkpt lat="35.773529320" lon="-106.267583880">
        <ele>1816.200</ele>
        <time>2022-04-25T22:09:59Z</time>
        <name>WPT.835</name>
      </trkpt>
      <trkpt lat="35.773569790" lon="-106.267594410">
        <ele>1815.600</ele>
        <time>2022-04-25T22:10:21Z</time>
        <name>WPT.836</name>
      </trkpt>
      <trkpt lat="35.773602520" lon="-106.267618850">
        <ele>1815.800</ele>
        <time>2022-04-25T22:10:25Z</time>
        <name>WPT.837</name>
      </trkpt>
      <trkpt lat="35.773639980" lon="-106.267638360">
        <ele>1814.500</ele>
        <time>2022-04-25T22:10:29Z</time>
        <name>WPT.838</name>
      </trkpt>
      <trkpt lat="35.773673870" lon="-106.267677530">
        <ele>1814.000</ele>
        <time>2022-04-25T22:10:33Z</time>
        <name>WPT.839</name>
      </trkpt>
      <trkpt lat="35.773710350" lon="-106.267711380">
        <ele>1814.000</ele>
        <time>2022-04-25T22:10:37Z</time>
        <name>WPT.840</name>
      </trkpt>
      <trkpt lat="35.773745490" lon="-106.267739510">
        <ele>1815.000</ele>
        <time>2022-04-25T22:10:41Z</time>
        <name>WPT.841</name>
      </trkpt>
      <trkpt lat="35.773773600" lon="-106.267767750">
        <ele>1815.300</ele>
        <time>2022-04-25T22:10:45Z</time>
        <name>WPT.842</name>
      </trkpt>
      <trkpt lat="35.773799420" lon="-106.267804850">
        <ele>1814.800</ele>
        <time>2022-04-25T22:10:49Z</time>
        <name>WPT.843</name>
      </trkpt>
      <trkpt lat="35.773833910" lon="-106.267837760">
        <ele>1814.600</ele>
        <time>2022-04-25T22:10:53Z</time>
        <name>WPT.844</name>
      </trkpt>
      <trkpt lat="35.773868340" lon="-106.267865860">
        <ele>1814.300</ele>
        <time>2022-04-25T22:10:57Z</time>
        <name>WPT.845</name>
      </trkpt>
      <trkpt lat="35.773902720" lon="-106.267895420">
        <ele>1813.700</ele>
        <time>2022-04-25T22:11:01Z</time>
        <name>WPT.846</name>
      </trkpt>
      <trkpt lat="35.773937720" lon="-106.267909080">
        <ele>1814.000</ele>
        <time>2022-04-25T22:11:05Z</time>
        <name>WPT.847</name>
      </trkpt>
      <trkpt lat="35.773971900" lon="-106.267924420">
        <ele>1813.400</ele>
        <time>2022-04-25T22:11:09Z</time>
        <name>WPT.848</name>
      </trkpt>
      <trkpt lat="35.773996410" lon="-106.267959640">
        <ele>1812.000</ele>
        <time>2022-04-25T22:11:12Z</time>
        <name>WPT.849</name>
      </trkpt>
      <trkpt lat="35.774013630" lon="-106.268005300">
        <ele>1812.000</ele>
        <time>2022-04-25T22:11:15Z</time>
        <name>WPT.850</name>
      </trkpt>
      <trkpt lat="35.774046510" lon="-106.268043120">
        <ele>1812.500</ele>
        <time>2022-04-25T22:11:32Z</time>
        <name>WPT.851</name>
      </trkpt>
      <trkpt lat="35.774074120" lon="-106.268079160">
        <ele>1814.000</ele>
        <time>2022-04-25T22:11:36Z</time>
        <name>WPT.852</name>
      </trkpt>
      <trkpt lat="35.774103590" lon="-106.268112040">
        <ele>1813.500</ele>
        <time>2022-04-25T22:11:40Z</time>
        <name>WPT.853</name>
      </trkpt>
      <trkpt lat="35.774124460" lon="-106.268154740">
        <ele>1813.500</ele>
        <time>2022-04-25T22:11:44Z</time>
        <name>WPT.854</name>
      </trkpt>
      <trkpt lat="35.774150770" lon="-106.268193370">
        <ele>1813.700</ele>
        <time>2022-04-25T22:11:48Z</time>
        <name>WPT.855</name>
      </trkpt>
      <trkpt lat="35.774171510" lon="-106.268230380">
        <ele>1812.700</ele>
        <time>2022-04-25T22:11:51Z</time>
        <name>WPT.856</name>
      </trkpt>
      <trkpt lat="35.774209590" lon="-106.268252920">
        <ele>1812.900</ele>
        <time>2022-04-25T22:11:55Z</time>
        <name>WPT.857</name>
      </trkpt>
      <trkpt lat="35.774245830" lon="-106.268255210">
        <ele>1812.600</ele>
        <time>2022-04-25T22:11:58Z</time>
        <name>WPT.858</name>
      </trkpt>
      <trkpt lat="35.774292330" lon="-106.268249120">
        <ele>1813.700</ele>
        <time>2022-04-25T22:12:02Z</time>
        <name>WPT.859</name>
      </trkpt>
      <trkpt lat="35.774330000" lon="-106.268267090">
        <ele>1812.800</ele>
        <time>2022-04-25T22:12:06Z</time>
        <name>WPT.860</name>
      </trkpt>
      <trkpt lat="35.774365630" lon="-106.268298240">
        <ele>1813.400</ele>
        <time>2022-04-25T22:12:10Z</time>
        <name>WPT.861</name>
      </trkpt>
      <trkpt lat="35.774399870" lon="-106.268317740">
        <ele>1813.700</ele>
        <time>2022-04-25T22:12:20Z</time>
        <name>WPT.862</name>
      </trkpt>
      <trkpt lat="35.774439860" lon="-106.268344090">
        <ele>1813.800</ele>
        <time>2022-04-25T22:12:25Z</time>
        <name>WPT.863</name>
      </trkpt>
      <trkpt lat="35.774478750" lon="-106.268368670">
        <ele>1815.200</ele>
        <time>2022-04-25T22:12:30Z</time>
        <name>WPT.864</name>
      </trkpt>
      <trkpt lat="35.774514820" lon="-106.268378510">
        <ele>1814.600</ele>
        <time>2022-04-25T22:12:34Z</time>
        <name>WPT.865</name>
      </trkpt>
      <trkpt lat="35.774554250" lon="-106.268406390">
        <ele>1814.800</ele>
        <time>2022-04-25T22:12:38Z</time>
        <name>WPT.866</name>
      </trkpt>
      <trkpt lat="35.774584960" lon="-106.268441020">
        <ele>1814.400</ele>
        <time>2022-04-25T22:12:42Z</time>
        <name>WPT.867</name>
      </trkpt>
      <trkpt lat="35.774619950" lon="-106.268464780">
        <ele>1813.800</ele>
        <time>2022-04-25T22:12:46Z</time>
        <name>WPT.868</name>
      </trkpt>
      <trkpt lat="35.774647940" lon="-106.268493470">
        <ele>1813.500</ele>
        <time>2022-04-25T22:12:50Z</time>
        <name>WPT.869</name>
      </trkpt>
      <trkpt lat="35.774678800" lon="-106.268518860">
        <ele>1814.400</ele>
        <time>2022-04-25T22:12:58Z</time>
        <name>WPT.870</name>
      </trkpt>
      <trkpt lat="35.774718420" lon="-106.268544700">
        <ele>1814.800</ele>
        <time>2022-04-25T22:13:02Z</time>
        <name>WPT.871</name>
      </trkpt>
      <trkpt lat="35.774756920" lon="-106.268570520">
        <ele>1815.200</ele>
        <time>2022-04-25T22:13:06Z</time>
        <name>WPT.872</name>
      </trkpt>
      <trkpt lat="35.774790290" lon="-106.268590220">
        <ele>1816.000</ele>
        <time>2022-04-25T22:13:09Z</time>
        <name>WPT.873</name>
      </trkpt>
      <trkpt lat="35.774820600" lon="-106.268614230">
        <ele>1816.700</ele>
        <time>2022-04-25T22:13:12Z</time>
        <name>WPT.874</name>
      </trkpt>
      <trkpt lat="35.774859430" lon="-106.268631100">
        <ele>1817.400</ele>
        <time>2022-04-25T22:13:16Z</time>
        <name>WPT.875</name>
      </trkpt>
      <trkpt lat="35.774892690" lon="-106.268654820">
        <ele>1817.100</ele>
        <time>2022-04-25T22:13:20Z</time>
        <name>WPT.876</name>
      </trkpt>
      <trkpt lat="35.774931570" lon="-106.268678220">
        <ele>1816.000</ele>
        <time>2022-04-25T22:13:24Z</time>
        <name>WPT.877</name>
      </trkpt>
      <trkpt lat="35.774957240" lon="-106.268714620">
        <ele>1816.000</ele>
        <time>2022-04-25T22:13:28Z</time>
        <name>WPT.878</name>
      </trkpt>
      <trkpt lat="35.774982650" lon="-106.268747210">
        <ele>1815.300</ele>
        <time>2022-04-25T22:13:33Z</time>
        <name>WPT.879</name>
      </trkpt>
      <trkpt lat="35.775022900" lon="-106.268764940">
        <ele>1816.300</ele>
        <time>2022-04-25T22:13:38Z</time>
        <name>WPT.880</name>
      </trkpt>
      <trkpt lat="35.775052100" lon="-106.268804610">
        <ele>1817.800</ele>
        <time>2022-04-25T22:13:42Z</time>
        <name>WPT.881</name>
      </trkpt>
      <trkpt lat="35.775087640" lon="-106.268828710">
        <ele>1819.800</ele>
        <time>2022-04-25T22:13:47Z</time>
        <name>WPT.882</name>
      </trkpt>
      <trkpt lat="35.775106760" lon="-106.268868790">
        <ele>1821.900</ele>
        <time>2022-04-25T22:13:51Z</time>
        <name>WPT.883</name>
      </trkpt>
      <trkpt lat="35.775124630" lon="-106.268913190">
        <ele>1820.700</ele>
        <time>2022-04-25T22:13:56Z</time>
        <name>WPT.884</name>
      </trkpt>
      <trkpt lat="35.775143640" lon="-106.268962580">
        <ele>1820.600</ele>
        <time>2022-04-25T22:14:01Z</time>
        <name>WPT.885</name>
      </trkpt>
      <trkpt lat="35.775170230" lon="-106.269004350">
        <ele>1821.500</ele>
        <time>2022-04-25T22:14:06Z</time>
        <name>WPT.886</name>
      </trkpt>
      <trkpt lat="35.775198870" lon="-106.269043430">
        <ele>1821.700</ele>
        <time>2022-04-25T22:14:11Z</time>
        <name>WPT.887</name>
      </trkpt>
      <trkpt lat="35.775215040" lon="-106.269083010">
        <ele>1823.800</ele>
        <time>2022-04-25T22:14:15Z</time>
        <name>WPT.888</name>
      </trkpt>
      <trkpt lat="35.775250630" lon="-106.269099410">
        <ele>1823.200</ele>
        <time>2022-04-25T22:14:19Z</time>
        <name>WPT.889</name>
      </trkpt>
      <trkpt lat="35.775294400" lon="-106.269096060">
        <ele>1821.300</ele>
        <time>2022-04-25T22:14:23Z</time>
        <name>WPT.890</name>
      </trkpt>
      <trkpt lat="35.775342810" lon="-106.269091240">
        <ele>1820.500</ele>
        <time>2022-04-25T22:14:27Z</time>
        <name>WPT.891</name>
      </trkpt>
      <trkpt lat="35.775386620" lon="-106.269089650">
        <ele>1822.100</ele>
        <time>2022-04-25T22:14:31Z</time>
        <name>WPT.892</name>
      </trkpt>
      <trkpt lat="35.775414510" lon="-106.269118200">
        <ele>1820.600</ele>
        <time>2022-04-25T22:14:38Z</time>
        <name>WPT.893</name>
      </trkpt>
      <trkpt lat="35.775452540" lon="-106.269125750">
        <ele>1822.900</ele>
        <time>2022-04-25T22:15:24Z</time>
        <name>WPT.894</name>
      </trkpt>
      <trkpt lat="35.775494040" lon="-106.269124670">
        <ele>1823.600</ele>
        <time>2022-04-25T22:15:28Z</time>
        <name>WPT.895</name>
      </trkpt>
      <trkpt lat="35.775531760" lon="-106.269128020">
        <ele>1824.000</ele>
        <time>2022-04-25T22:15:32Z</time>
        <name>WPT.896</name>
      </trkpt>
      <trkpt lat="35.775569930" lon="-106.269136940">
        <ele>1825.000</ele>
        <time>2022-04-25T22:15:36Z</time>
        <name>WPT.897</name>
      </trkpt>
      <trkpt lat="35.775601500" lon="-106.269162320">
        <ele>1825.700</ele>
        <time>2022-04-25T22:15:40Z</time>
        <name>WPT.898</name>
      </trkpt>
      <trkpt lat="35.775642610" lon="-106.269186090">
        <ele>1824.600</ele>
        <time>2022-04-25T22:15:45Z</time>
        <name>WPT.899</name>
      </trkpt>
      <trkpt lat="35.775676270" lon="-106.269214430">
        <ele>1825.000</ele>
        <time>2022-04-25T22:15:49Z</time>
        <name>WPT.900</name>
      </trkpt>
      <trkpt lat="35.775713220" lon="-106.269227100">
        <ele>1825.600</ele>
        <time>2022-04-25T22:15:52Z</time>
        <name>WPT.901</name>
      </trkpt>
      <trkpt lat="35.775748660" lon="-106.269238530">
        <ele>1826.700</ele>
        <time>2022-04-25T22:15:55Z</time>
        <name>WPT.902</name>
      </trkpt>
      <trkpt lat="35.775789670" lon="-106.269243510">
        <ele>1830.100</ele>
        <time>2022-04-25T22:16:00Z</time>
        <name>WPT.903</name>
      </trkpt>
      <trkpt lat="35.775816810" lon="-106.269275100">
        <ele>1830.200</ele>
        <time>2022-04-25T22:16:03Z</time>
        <name>WPT.904</name>
      </trkpt>
      <trkpt lat="35.775849500" lon="-106.269296250">
        <ele>1829.900</ele>
        <time>2022-04-25T22:16:07Z</time>
        <name>WPT.905</name>
      </trkpt>
      <trkpt lat="35.775886360" lon="-106.269304780">
        <ele>1829.700</ele>
        <time>2022-04-25T22:16:10Z</time>
        <name>WPT.906</name>
      </trkpt>
      <trkpt lat="35.775922420" lon="-106.269309860">
        <ele>1830.300</ele>
        <time>2022-04-25T22:16:16Z</time>
        <name>WPT.907</name>
      </trkpt>
      <trkpt lat="35.775949870" lon="-106.269274370">
        <ele>1829.600</ele>
        <time>2022-04-25T22:16:41Z</time>
        <name>WPT.908</name>
      </trkpt>
      <trkpt lat="35.775988110" lon="-106.269253270">
        <ele>1828.100</ele>
        <time>2022-04-25T22:16:45Z</time>
        <name>WPT.909</name>
      </trkpt>
      <trkpt lat="35.776018340" lon="-106.269289330">
        <ele>1827.700</ele>
        <time>2022-04-25T22:16:49Z</time>
        <name>WPT.910</name>
      </trkpt>
      <trkpt lat="35.776056200" lon="-106.269304140">
        <ele>1827.200</ele>
        <time>2022-04-25T22:16:53Z</time>
        <name>WPT.911</name>
      </trkpt>
      <trkpt lat="35.776099190" lon="-106.269319280">
        <ele>1826.400</ele>
        <time>2022-04-25T22:16:57Z</time>
        <name>WPT.912</name>
      </trkpt>
      <trkpt lat="35.776132160" lon="-106.269357040">
        <ele>1827.800</ele>
        <time>2022-04-25T22:17:02Z</time>
        <name>WPT.913</name>
      </trkpt>
      <trkpt lat="35.776153420" lon="-106.269393550">
        <ele>1826.600</ele>
        <time>2022-04-25T22:17:05Z</time>
        <name>WPT.914</name>
      </trkpt>
      <trkpt lat="35.776183300" lon="-106.269429550">
        <ele>1825.600</ele>
        <time>2022-04-25T22:17:10Z</time>
        <name>WPT.915</name>
      </trkpt>
      <trkpt lat="35.776220780" lon="-106.269446850">
        <ele>1824.200</ele>
        <time>2022-04-25T22:17:14Z</time>
        <name>WPT.916</name>
      </trkpt>
      <trkpt lat="35.776259180" lon="-106.269468020">
        <ele>1824.000</ele>
        <time>2022-04-25T22:17:18Z</time>
        <name>WPT.917</name>
      </trkpt>
      <trkpt lat="35.776299410" lon="-106.269485930">
        <ele>1822.900</ele>
        <time>2022-04-25T22:17:23Z</time>
        <name>WPT.918</name>
      </trkpt>
      <trkpt lat="35.776341590" lon="-106.269493960">
        <ele>1821.100</ele>
        <time>2022-04-25T22:17:28Z</time>
        <name>WPT.919</name>
      </trkpt>
      <trkpt lat="35.776383130" lon="-106.269482250">
        <ele>1820.000</ele>
        <time>2022-04-25T22:17:32Z</time>
        <name>WPT.920</name>
      </trkpt>
      <trkpt lat="35.776422730" lon="-106.269477590">
        <ele>1819.200</ele>
        <time>2022-04-25T22:17:36Z</time>
        <name>WPT.921</name>
      </trkpt>
      <trkpt lat="35.776465890" lon="-106.269477570">
        <ele>1818.000</ele>
        <time>2022-04-25T22:17:41Z</time>
        <name>WPT.922</name>
      </trkpt>
      <trkpt lat="35.776498750" lon="-106.269499650">
        <ele>1819.000</ele>
        <time>2022-04-25T22:17:45Z</time>
        <name>WPT.923</name>
      </trkpt>
      <trkpt lat="35.776529880" lon="-106.269526510">
        <ele>1819.600</ele>
        <time>2022-04-25T22:17:49Z</time>
        <name>WPT.924</name>
      </trkpt>
      <trkpt lat="35.776566970" lon="-106.269530580">
        <ele>1819.200</ele>
        <time>2022-04-25T22:17:53Z</time>
        <name>WPT.925</name>
      </trkpt>
      <trkpt lat="35.776603200" lon="-106.269524200">
        <ele>1816.900</ele>
        <time>2022-04-25T22:17:56Z</time>
        <name>WPT.926</name>
      </trkpt>
      <trkpt lat="35.776642370" lon="-106.269533660">
        <ele>1818.600</ele>
        <time>2022-04-25T22:17:59Z</time>
        <name>WPT.927</name>
      </trkpt>
      <trkpt lat="35.776684040" lon="-106.269550900">
        <ele>1818.600</ele>
        <time>2022-04-25T22:18:04Z</time>
        <name>WPT.928</name>
      </trkpt>
      <trkpt lat="35.776724170" lon="-106.269573930">
        <ele>1818.900</ele>
        <time>2022-04-25T22:18:08Z</time>
        <name>WPT.929</name>
      </trkpt>
      <trkpt lat="35.776766380" lon="-106.269587640">
        <ele>1817.600</ele>
        <time>2022-04-25T22:18:13Z</time>
        <name>WPT.930</name>
      </trkpt>
      <trkpt lat="35.776798590" lon="-106.269618660">
        <ele>1818.400</ele>
        <time>2022-04-25T22:18:17Z</time>
        <name>WPT.931</name>
      </trkpt>
      <trkpt lat="35.776825940" lon="-106.269647960">
        <ele>1820.200</ele>
        <time>2022-04-25T22:18:21Z</time>
        <name>WPT.932</name>
      </trkpt>
      <trkpt lat="35.776843130" lon="-106.269693770">
        <ele>1819.900</ele>
        <time>2022-04-25T22:18:26Z</time>
        <name>WPT.933</name>
      </trkpt>
      <trkpt lat="35.776883960" lon="-106.269703140">
        <ele>1818.400</ele>
        <time>2022-04-25T22:18:31Z</time>
        <name>WPT.934</name>
      </trkpt>
      <trkpt lat="35.776925610" lon="-106.269728300">
        <ele>1821.600</ele>
        <time>2022-04-25T22:18:35Z</time>
        <name>WPT.935</name>
      </trkpt>
      <trkpt lat="35.776964820" lon="-106.269752060">
        <ele>1824.500</ele>
        <time>2022-04-25T22:18:39Z</time>
        <name>WPT.936</name>
      </trkpt>
      <trkpt lat="35.777001580" lon="-106.269772660">
        <ele>1824.300</ele>
        <time>2022-04-25T22:18:43Z</time>
        <name>WPT.937</name>
      </trkpt>
      <trkpt lat="35.777045750" lon="-106.269781850">
        <ele>1824.200</ele>
        <time>2022-04-25T22:18:47Z</time>
        <name>WPT.938</name>
      </trkpt>
      <trkpt lat="35.777071790" lon="-106.269813860">
        <ele>1823.100</ele>
        <time>2022-04-25T22:18:50Z</time>
        <name>WPT.939</name>
      </trkpt>
      <trkpt lat="35.777096310" lon="-106.269852450">
        <ele>1824.700</ele>
        <time>2022-04-25T22:18:54Z</time>
        <name>WPT.940</name>
      </trkpt>
      <trkpt lat="35.777126290" lon="-106.269887300">
        <ele>1824.100</ele>
        <time>2022-04-25T22:18:58Z</time>
        <name>WPT.941</name>
      </trkpt>
      <trkpt lat="35.777160890" lon="-106.269916260">
        <ele>1825.400</ele>
        <time>2022-04-25T22:19:02Z</time>
        <name>WPT.942</name>
      </trkpt>
      <trkpt lat="35.777191350" lon="-106.269945560">
        <ele>1826.600</ele>
        <time>2022-04-25T22:19:06Z</time>
        <name>WPT.943</name>
      </trkpt>
      <trkpt lat="35.777231490" lon="-106.269966570">
        <ele>1826.000</ele>
        <time>2022-04-25T22:19:11Z</time>
        <name>WPT.944</name>
      </trkpt>
      <trkpt lat="35.777246930" lon="-106.270015020">
        <ele>1824.100</ele>
        <time>2022-04-25T22:19:15Z</time>
        <name>WPT.945</name>
      </trkpt>
      <trkpt lat="35.777275290" lon="-106.270018770">
        <ele>1825.400</ele>
        <time>2022-04-25T22:19:46Z</time>
        <name>WPT.946</name>
      </trkpt>
    </trkseg>
  </trk>
</gpx>
